<?xml version="1.0" encoding="UTF-8" standalone="no" ?>
<gpx xmlns="http://www.topografix.com/GPX/1/1" xmlns:xsi="http://www.w3.org/2001/XMLSchema-instance" xsi:schemaLocation="http://www.topografix.com/GPX/1/1 http://www.topografix.com/GPX/1/1/gpx.xsd" version="1.1" creator="VisuGPX - https://www.visugpx.com">
  <metadata>
    <name>Gr65 COMPOSTELLE - Etape 3</name>
    <desc><![CDATA[Etape de Saugues à Le Sauvage ....
Resto à Chaneille sympa.
Gite de Le Sauvage magnifique !]]></desc>
  </metadata>
  <trk>
    <name><![CDATA[2018-04-23]]></name>
    <trkseg>
      <trkpt lat="44.95897" lon="3.54531">
        <ele>971.07</ele>
        <time>2018-04-23T06:35:38Z</time>
      </trkpt>
      <trkpt lat="44.95898" lon="3.54518">
        <ele>966.74</ele>
        <time>2018-04-23T06:35:53Z</time>
      </trkpt>
      <trkpt lat="44.95896" lon="3.54512">
        <ele>968.67</ele>
        <time>2018-04-23T06:36:07Z</time>
      </trkpt>
      <trkpt lat="44.95896" lon="3.54501">
        <ele>968.18</ele>
        <time>2018-04-23T06:36:19Z</time>
      </trkpt>
      <trkpt lat="44.95892" lon="3.54492">
        <ele>968.67</ele>
        <time>2018-04-23T06:36:40Z</time>
      </trkpt>
      <trkpt lat="44.95886" lon="3.54486">
        <ele>962.9</ele>
        <time>2018-04-23T06:36:46Z</time>
      </trkpt>
      <trkpt lat="44.95877" lon="3.54459">
        <ele>958.57</ele>
        <time>2018-04-23T06:37:07Z</time>
      </trkpt>
      <trkpt lat="44.95873" lon="3.54443">
        <ele>959.05</ele>
        <time>2018-04-23T06:37:32Z</time>
      </trkpt>
      <trkpt lat="44.95864" lon="3.54423">
        <ele>959.05</ele>
        <time>2018-04-23T06:37:53Z</time>
      </trkpt>
      <trkpt lat="44.95843" lon="3.54389">
        <ele>957.61</ele>
        <time>2018-04-23T06:38:15Z</time>
      </trkpt>
      <trkpt lat="44.95846" lon="3.54366">
        <ele>956.17</ele>
        <time>2018-04-23T06:38:32Z</time>
      </trkpt>
      <trkpt lat="44.95845" lon="3.54361">
        <ele>956.65</ele>
        <time>2018-04-23T06:38:51Z</time>
      </trkpt>
      <trkpt lat="44.95851" lon="3.54366">
        <ele>957.13</ele>
        <time>2018-04-23T06:39:12Z</time>
      </trkpt>
      <trkpt lat="44.9585" lon="3.54369">
        <ele>957.13</ele>
        <time>2018-04-23T06:39:38Z</time>
      </trkpt>
      <trkpt lat="44.9585" lon="3.54366">
        <ele>955.69</ele>
        <time>2018-04-23T06:40:04Z</time>
      </trkpt>
      <trkpt lat="44.95859" lon="3.54374">
        <ele>956.65</ele>
        <time>2018-04-23T06:40:29Z</time>
      </trkpt>
      <trkpt lat="44.95864" lon="3.54372">
        <ele>956.17</ele>
        <time>2018-04-23T06:40:58Z</time>
      </trkpt>
      <trkpt lat="44.95861" lon="3.54373">
        <ele>956.65</ele>
        <time>2018-04-23T06:41:21Z</time>
      </trkpt>
      <trkpt lat="44.95844" lon="3.5437">
        <ele>956.65</ele>
        <time>2018-04-23T06:41:37Z</time>
      </trkpt>
      <trkpt lat="44.95833" lon="3.54366">
        <ele>956.17</ele>
        <time>2018-04-23T06:42:03Z</time>
      </trkpt>
      <trkpt lat="44.95836" lon="3.54355">
        <ele>955.69</ele>
        <time>2018-04-23T06:42:29Z</time>
      </trkpt>
      <trkpt lat="44.9583" lon="3.54343">
        <ele>953.77</ele>
        <time>2018-04-23T06:42:58Z</time>
      </trkpt>
      <trkpt lat="44.95846" lon="3.54344">
        <ele>952.8</ele>
        <time>2018-04-23T06:43:17Z</time>
      </trkpt>
      <trkpt lat="44.95859" lon="3.54353">
        <ele>952.8</ele>
        <time>2018-04-23T06:43:43Z</time>
      </trkpt>
      <trkpt lat="44.95862" lon="3.54355">
        <ele>952.8</ele>
        <time>2018-04-23T06:44:08Z</time>
      </trkpt>
      <trkpt lat="44.9585" lon="3.54355">
        <ele>951.84</ele>
        <time>2018-04-23T06:44:32Z</time>
      </trkpt>
      <trkpt lat="44.95846" lon="3.54351">
        <ele>951.36</ele>
        <time>2018-04-23T06:44:59Z</time>
      </trkpt>
      <trkpt lat="44.95855" lon="3.54363">
        <ele>950.88</ele>
        <time>2018-04-23T06:45:22Z</time>
      </trkpt>
      <trkpt lat="44.95846" lon="3.54355">
        <ele>949.92</ele>
        <time>2018-04-23T06:45:48Z</time>
      </trkpt>
      <trkpt lat="44.95844" lon="3.54359">
        <ele>949.92</ele>
        <time>2018-04-23T06:46:11Z</time>
      </trkpt>
      <trkpt lat="44.95852" lon="3.5436">
        <ele>950.4</ele>
        <time>2018-04-23T06:46:31Z</time>
      </trkpt>
      <trkpt lat="44.95823" lon="3.54373">
        <ele>953.28</ele>
        <time>2018-04-23T06:46:53Z</time>
      </trkpt>
      <trkpt lat="44.95821" lon="3.54338">
        <ele>948</ele>
        <time>2018-04-23T06:47:13Z</time>
      </trkpt>
      <trkpt lat="44.95818" lon="3.54328">
        <ele>947.52</ele>
        <time>2018-04-23T06:47:20Z</time>
      </trkpt>
      <trkpt lat="44.95805" lon="3.54309">
        <ele>951.36</ele>
        <time>2018-04-23T06:47:37Z</time>
      </trkpt>
      <trkpt lat="44.95804" lon="3.54308">
        <ele>951.36</ele>
        <time>2018-04-23T06:47:38Z</time>
      </trkpt>
      <trkpt lat="44.95796" lon="3.54287">
        <ele>951.36</ele>
        <time>2018-04-23T06:47:58Z</time>
      </trkpt>
      <trkpt lat="44.95784" lon="3.54268">
        <ele>950.88</ele>
        <time>2018-04-23T06:48:18Z</time>
      </trkpt>
      <trkpt lat="44.95769" lon="3.5425">
        <ele>950.88</ele>
        <time>2018-04-23T06:48:39Z</time>
      </trkpt>
      <trkpt lat="44.95751" lon="3.54231">
        <ele>951.84</ele>
        <time>2018-04-23T06:48:59Z</time>
      </trkpt>
      <trkpt lat="44.9574" lon="3.54221">
        <ele>950.88</ele>
        <time>2018-04-23T06:49:18Z</time>
      </trkpt>
      <trkpt lat="44.95728" lon="3.54208">
        <ele>950.4</ele>
        <time>2018-04-23T06:49:42Z</time>
      </trkpt>
      <trkpt lat="44.95699" lon="3.54197">
        <ele>949.44</ele>
        <time>2018-04-23T06:50:03Z</time>
      </trkpt>
      <trkpt lat="44.95682" lon="3.54197">
        <ele>946.56</ele>
        <time>2018-04-23T06:50:26Z</time>
      </trkpt>
      <trkpt lat="44.9567" lon="3.54197">
        <ele>946.56</ele>
        <time>2018-04-23T06:50:39Z</time>
      </trkpt>
      <trkpt lat="44.95637" lon="3.54182">
        <ele>945.59</ele>
        <time>2018-04-23T06:50:57Z</time>
      </trkpt>
      <trkpt lat="44.95626" lon="3.5416">
        <ele>946.56</ele>
        <time>2018-04-23T06:51:19Z</time>
      </trkpt>
      <trkpt lat="44.95629" lon="3.54131">
        <ele>943.67</ele>
        <time>2018-04-23T06:51:39Z</time>
      </trkpt>
      <trkpt lat="44.95631" lon="3.54107">
        <ele>939.35</ele>
        <time>2018-04-23T06:51:57Z</time>
      </trkpt>
      <trkpt lat="44.9562" lon="3.54093">
        <ele>937.42</ele>
        <time>2018-04-23T06:52:16Z</time>
      </trkpt>
      <trkpt lat="44.95613" lon="3.54085">
        <ele>934.06</ele>
        <time>2018-04-23T06:52:36Z</time>
      </trkpt>
      <trkpt lat="44.95607" lon="3.54075">
        <ele>930.21</ele>
        <time>2018-04-23T06:53:03Z</time>
      </trkpt>
      <trkpt lat="44.956" lon="3.54051">
        <ele>927.33</ele>
        <time>2018-04-23T06:53:23Z</time>
      </trkpt>
      <trkpt lat="44.95597" lon="3.54025">
        <ele>925.89</ele>
        <time>2018-04-23T06:53:40Z</time>
      </trkpt>
      <trkpt lat="44.95591" lon="3.53997">
        <ele>926.37</ele>
        <time>2018-04-23T06:53:59Z</time>
      </trkpt>
      <trkpt lat="44.95585" lon="3.53979">
        <ele>924.93</ele>
        <time>2018-04-23T06:54:17Z</time>
      </trkpt>
      <trkpt lat="44.95583" lon="3.53966">
        <ele>924.93</ele>
        <time>2018-04-23T06:54:39Z</time>
      </trkpt>
      <trkpt lat="44.95576" lon="3.53938">
        <ele>924.45</ele>
        <time>2018-04-23T06:54:59Z</time>
      </trkpt>
      <trkpt lat="44.95564" lon="3.53918">
        <ele>923.96</ele>
        <time>2018-04-23T06:55:20Z</time>
      </trkpt>
      <trkpt lat="44.95558" lon="3.53906">
        <ele>923.96</ele>
        <time>2018-04-23T06:55:38Z</time>
      </trkpt>
      <trkpt lat="44.95552" lon="3.53883">
        <ele>924.45</ele>
        <time>2018-04-23T06:56:03Z</time>
      </trkpt>
      <trkpt lat="44.95542" lon="3.53868">
        <ele>925.41</ele>
        <time>2018-04-23T06:56:20Z</time>
      </trkpt>
      <trkpt lat="44.95524" lon="3.53867">
        <ele>928.29</ele>
        <time>2018-04-23T06:56:39Z</time>
      </trkpt>
      <trkpt lat="44.95506" lon="3.5386">
        <ele>927.81</ele>
        <time>2018-04-23T06:57:01Z</time>
      </trkpt>
      <trkpt lat="44.95487" lon="3.53858">
        <ele>927.81</ele>
        <time>2018-04-23T06:57:20Z</time>
      </trkpt>
      <trkpt lat="44.95467" lon="3.5385">
        <ele>927.81</ele>
        <time>2018-04-23T06:57:40Z</time>
      </trkpt>
      <trkpt lat="44.95446" lon="3.53838">
        <ele>927.33</ele>
        <time>2018-04-23T06:58:03Z</time>
      </trkpt>
      <trkpt lat="44.95431" lon="3.53825">
        <ele>929.25</ele>
        <time>2018-04-23T06:58:23Z</time>
      </trkpt>
      <trkpt lat="44.95411" lon="3.53806">
        <ele>928.29</ele>
        <time>2018-04-23T06:58:44Z</time>
      </trkpt>
      <trkpt lat="44.95394" lon="3.53788">
        <ele>928.29</ele>
        <time>2018-04-23T06:59:07Z</time>
      </trkpt>
      <trkpt lat="44.95379" lon="3.53769">
        <ele>928.29</ele>
        <time>2018-04-23T06:59:27Z</time>
      </trkpt>
      <trkpt lat="44.95363" lon="3.53757">
        <ele>927.33</ele>
        <time>2018-04-23T06:59:46Z</time>
      </trkpt>
      <trkpt lat="44.95341" lon="3.53745">
        <ele>925.41</ele>
        <time>2018-04-23T07:00:07Z</time>
      </trkpt>
      <trkpt lat="44.95322" lon="3.53734">
        <ele>923.48</ele>
        <time>2018-04-23T07:00:28Z</time>
      </trkpt>
      <trkpt lat="44.95305" lon="3.53727">
        <ele>921.56</ele>
        <time>2018-04-23T07:00:49Z</time>
      </trkpt>
      <trkpt lat="44.95288" lon="3.53722">
        <ele>921.56</ele>
        <time>2018-04-23T07:01:08Z</time>
      </trkpt>
      <trkpt lat="44.95268" lon="3.53706">
        <ele>924.93</ele>
        <time>2018-04-23T07:01:30Z</time>
      </trkpt>
      <trkpt lat="44.95253" lon="3.53686">
        <ele>925.41</ele>
        <time>2018-04-23T07:01:51Z</time>
      </trkpt>
      <trkpt lat="44.95246" lon="3.53667">
        <ele>923</ele>
        <time>2018-04-23T07:02:11Z</time>
      </trkpt>
      <trkpt lat="44.95245" lon="3.53666">
        <ele>923</ele>
        <time>2018-04-23T07:02:12Z</time>
      </trkpt>
      <trkpt lat="44.95236" lon="3.53633">
        <ele>921.56</ele>
        <time>2018-04-23T07:02:33Z</time>
      </trkpt>
      <trkpt lat="44.95228" lon="3.5361">
        <ele>922.52</ele>
        <time>2018-04-23T07:02:52Z</time>
      </trkpt>
      <trkpt lat="44.95221" lon="3.53587">
        <ele>923.96</ele>
        <time>2018-04-23T07:03:14Z</time>
      </trkpt>
      <trkpt lat="44.95212" lon="3.53566">
        <ele>924.93</ele>
        <time>2018-04-23T07:03:34Z</time>
      </trkpt>
      <trkpt lat="44.95201" lon="3.5354">
        <ele>926.85</ele>
        <time>2018-04-23T07:03:54Z</time>
      </trkpt>
      <trkpt lat="44.9519" lon="3.53522">
        <ele>923.96</ele>
        <time>2018-04-23T07:04:13Z</time>
      </trkpt>
      <trkpt lat="44.95177" lon="3.53489">
        <ele>927.33</ele>
        <time>2018-04-23T07:04:34Z</time>
      </trkpt>
      <trkpt lat="44.95167" lon="3.53468">
        <ele>926.37</ele>
        <time>2018-04-23T07:04:54Z</time>
      </trkpt>
      <trkpt lat="44.95153" lon="3.53445">
        <ele>922.04</ele>
        <time>2018-04-23T07:05:14Z</time>
      </trkpt>
      <trkpt lat="44.9514" lon="3.53425">
        <ele>918.68</ele>
        <time>2018-04-23T07:05:33Z</time>
      </trkpt>
      <trkpt lat="44.95132" lon="3.5341">
        <ele>918.68</ele>
        <time>2018-04-23T07:05:53Z</time>
      </trkpt>
      <trkpt lat="44.9512" lon="3.53385">
        <ele>919.16</ele>
        <time>2018-04-23T07:06:15Z</time>
      </trkpt>
      <trkpt lat="44.95107" lon="3.5336">
        <ele>916.75</ele>
        <time>2018-04-23T07:06:36Z</time>
      </trkpt>
      <trkpt lat="44.95088" lon="3.53339">
        <ele>916.75</ele>
        <time>2018-04-23T07:06:56Z</time>
      </trkpt>
      <trkpt lat="44.95073" lon="3.53324">
        <ele>914.83</ele>
        <time>2018-04-23T07:07:16Z</time>
      </trkpt>
      <trkpt lat="44.95056" lon="3.53303">
        <ele>919.16</ele>
        <time>2018-04-23T07:07:37Z</time>
      </trkpt>
      <trkpt lat="44.95038" lon="3.53294">
        <ele>920.6</ele>
        <time>2018-04-23T07:07:58Z</time>
      </trkpt>
      <trkpt lat="44.95021" lon="3.53282">
        <ele>926.85</ele>
        <time>2018-04-23T07:08:18Z</time>
      </trkpt>
      <trkpt lat="44.95012" lon="3.53266">
        <ele>927.33</ele>
        <time>2018-04-23T07:08:36Z</time>
      </trkpt>
      <trkpt lat="44.94994" lon="3.53266">
        <ele>927.33</ele>
        <time>2018-04-23T07:08:56Z</time>
      </trkpt>
      <trkpt lat="44.94968" lon="3.53264">
        <ele>929.25</ele>
        <time>2018-04-23T07:09:19Z</time>
      </trkpt>
      <trkpt lat="44.94944" lon="3.53261">
        <ele>930.69</ele>
        <time>2018-04-23T07:09:42Z</time>
      </trkpt>
      <trkpt lat="44.94926" lon="3.53258">
        <ele>929.73</ele>
        <time>2018-04-23T07:10:04Z</time>
      </trkpt>
      <trkpt lat="44.94905" lon="3.53252">
        <ele>932.62</ele>
        <time>2018-04-23T07:10:25Z</time>
      </trkpt>
      <trkpt lat="44.94883" lon="3.53245">
        <ele>935.5</ele>
        <time>2018-04-23T07:10:50Z</time>
      </trkpt>
      <trkpt lat="44.9486" lon="3.53238">
        <ele>933.58</ele>
        <time>2018-04-23T07:11:14Z</time>
      </trkpt>
      <trkpt lat="44.94839" lon="3.53222">
        <ele>935.98</ele>
        <time>2018-04-23T07:11:34Z</time>
      </trkpt>
      <trkpt lat="44.94818" lon="3.53217">
        <ele>932.62</ele>
        <time>2018-04-23T07:11:58Z</time>
      </trkpt>
      <trkpt lat="44.94804" lon="3.53206">
        <ele>931.65</ele>
        <time>2018-04-23T07:12:19Z</time>
      </trkpt>
      <trkpt lat="44.94792" lon="3.53194">
        <ele>934.06</ele>
        <time>2018-04-23T07:12:40Z</time>
      </trkpt>
      <trkpt lat="44.94788" lon="3.53194">
        <ele>931.65</ele>
        <time>2018-04-23T07:13:10Z</time>
      </trkpt>
      <trkpt lat="44.94792" lon="3.53186">
        <ele>935.5</ele>
        <time>2018-04-23T07:13:38Z</time>
      </trkpt>
      <trkpt lat="44.94797" lon="3.53187">
        <ele>943.19</ele>
        <time>2018-04-23T07:14:03Z</time>
      </trkpt>
      <trkpt lat="44.94786" lon="3.53181">
        <ele>947.52</ele>
        <time>2018-04-23T07:14:21Z</time>
      </trkpt>
      <trkpt lat="44.94774" lon="3.53168">
        <ele>955.21</ele>
        <time>2018-04-23T07:14:34Z</time>
      </trkpt>
      <trkpt lat="44.94761" lon="3.53157">
        <ele>955.69</ele>
        <time>2018-04-23T07:14:49Z</time>
      </trkpt>
      <trkpt lat="44.94739" lon="3.53145">
        <ele>955.21</ele>
        <time>2018-04-23T07:15:09Z</time>
      </trkpt>
      <trkpt lat="44.94711" lon="3.5313">
        <ele>952.32</ele>
        <time>2018-04-23T07:15:32Z</time>
      </trkpt>
      <trkpt lat="44.94684" lon="3.5311">
        <ele>952.8</ele>
        <time>2018-04-23T07:15:53Z</time>
      </trkpt>
      <trkpt lat="44.94657" lon="3.53094">
        <ele>953.77</ele>
        <time>2018-04-23T07:16:17Z</time>
      </trkpt>
      <trkpt lat="44.94639" lon="3.53084">
        <ele>954.73</ele>
        <time>2018-04-23T07:16:36Z</time>
      </trkpt>
      <trkpt lat="44.9463" lon="3.53075">
        <ele>955.21</ele>
        <time>2018-04-23T07:16:51Z</time>
      </trkpt>
      <trkpt lat="44.94618" lon="3.53066">
        <ele>956.65</ele>
        <time>2018-04-23T07:17:08Z</time>
      </trkpt>
      <trkpt lat="44.94595" lon="3.53047">
        <ele>959.53</ele>
        <time>2018-04-23T07:17:32Z</time>
      </trkpt>
      <trkpt lat="44.94572" lon="3.53033">
        <ele>962.42</ele>
        <time>2018-04-23T07:17:55Z</time>
      </trkpt>
      <trkpt lat="44.9456" lon="3.53027">
        <ele>963.38</ele>
        <time>2018-04-23T07:18:11Z</time>
      </trkpt>
      <trkpt lat="44.94548" lon="3.53025">
        <ele>963.38</ele>
        <time>2018-04-23T07:18:27Z</time>
      </trkpt>
      <trkpt lat="44.94521" lon="3.53013">
        <ele>964.82</ele>
        <time>2018-04-23T07:18:53Z</time>
      </trkpt>
      <trkpt lat="44.94499" lon="3.52999">
        <ele>967.22</ele>
        <time>2018-04-23T07:19:13Z</time>
      </trkpt>
      <trkpt lat="44.94483" lon="3.52979">
        <ele>971.07</ele>
        <time>2018-04-23T07:19:32Z</time>
      </trkpt>
      <trkpt lat="44.94475" lon="3.52965">
        <ele>973.95</ele>
        <time>2018-04-23T07:19:49Z</time>
      </trkpt>
      <trkpt lat="44.94462" lon="3.52939">
        <ele>980.2</ele>
        <time>2018-04-23T07:20:10Z</time>
      </trkpt>
      <trkpt lat="44.94447" lon="3.52912">
        <ele>986.93</ele>
        <time>2018-04-23T07:20:34Z</time>
      </trkpt>
      <trkpt lat="44.94426" lon="3.52893">
        <ele>991.74</ele>
        <time>2018-04-23T07:20:58Z</time>
      </trkpt>
      <trkpt lat="44.94406" lon="3.52866">
        <ele>994.62</ele>
        <time>2018-04-23T07:21:23Z</time>
      </trkpt>
      <trkpt lat="44.94391" lon="3.52847">
        <ele>996.06</ele>
        <time>2018-04-23T07:21:40Z</time>
      </trkpt>
      <trkpt lat="44.9438" lon="3.52835">
        <ele>994.62</ele>
        <time>2018-04-23T07:22:01Z</time>
      </trkpt>
      <trkpt lat="44.94374" lon="3.52838">
        <ele>995.58</ele>
        <time>2018-04-23T07:22:21Z</time>
      </trkpt>
      <trkpt lat="44.94368" lon="3.52824">
        <ele>990.78</ele>
        <time>2018-04-23T07:22:46Z</time>
      </trkpt>
      <trkpt lat="44.94357" lon="3.52814">
        <ele>986.93</ele>
        <time>2018-04-23T07:23:02Z</time>
      </trkpt>
      <trkpt lat="44.94355" lon="3.52813">
        <ele>986.45</ele>
        <time>2018-04-23T07:23:03Z</time>
      </trkpt>
      <trkpt lat="44.94336" lon="3.52802">
        <ele>984.53</ele>
        <time>2018-04-23T07:23:23Z</time>
      </trkpt>
      <trkpt lat="44.94323" lon="3.52793">
        <ele>985.01</ele>
        <time>2018-04-23T07:23:41Z</time>
      </trkpt>
      <trkpt lat="44.94301" lon="3.52798">
        <ele>987.41</ele>
        <time>2018-04-23T07:24:01Z</time>
      </trkpt>
      <trkpt lat="44.94281" lon="3.52809">
        <ele>988.37</ele>
        <time>2018-04-23T07:24:20Z</time>
      </trkpt>
      <trkpt lat="44.94253" lon="3.52819">
        <ele>990.78</ele>
        <time>2018-04-23T07:24:45Z</time>
      </trkpt>
      <trkpt lat="44.94227" lon="3.52829">
        <ele>993.66</ele>
        <time>2018-04-23T07:25:06Z</time>
      </trkpt>
      <trkpt lat="44.94204" lon="3.52841">
        <ele>994.62</ele>
        <time>2018-04-23T07:25:30Z</time>
      </trkpt>
      <trkpt lat="44.94193" lon="3.52848">
        <ele>994.14</ele>
        <time>2018-04-23T07:25:46Z</time>
      </trkpt>
      <trkpt lat="44.94178" lon="3.52853">
        <ele>990.78</ele>
        <time>2018-04-23T07:26:05Z</time>
      </trkpt>
      <trkpt lat="44.94149" lon="3.52857">
        <ele>989.81</ele>
        <time>2018-04-23T07:26:31Z</time>
      </trkpt>
      <trkpt lat="44.94136" lon="3.52858">
        <ele>987.89</ele>
        <time>2018-04-23T07:26:47Z</time>
      </trkpt>
      <trkpt lat="44.94122" lon="3.52851">
        <ele>986.45</ele>
        <time>2018-04-23T07:27:04Z</time>
      </trkpt>
      <trkpt lat="44.94098" lon="3.52843">
        <ele>981.16</ele>
        <time>2018-04-23T07:27:26Z</time>
      </trkpt>
      <trkpt lat="44.94079" lon="3.52844">
        <ele>979.24</ele>
        <time>2018-04-23T07:27:46Z</time>
      </trkpt>
      <trkpt lat="44.94064" lon="3.52848">
        <ele>985.01</ele>
        <time>2018-04-23T07:28:03Z</time>
      </trkpt>
      <trkpt lat="44.94041" lon="3.52866">
        <ele>992.22</ele>
        <time>2018-04-23T07:28:25Z</time>
      </trkpt>
      <trkpt lat="44.94019" lon="3.5288">
        <ele>994.14</ele>
        <time>2018-04-23T07:28:46Z</time>
      </trkpt>
      <trkpt lat="44.94007" lon="3.52906">
        <ele>995.1</ele>
        <time>2018-04-23T07:29:04Z</time>
      </trkpt>
      <trkpt lat="44.93995" lon="3.52945">
        <ele>995.58</ele>
        <time>2018-04-23T07:29:27Z</time>
      </trkpt>
      <trkpt lat="44.93992" lon="3.52964">
        <ele>997.02</ele>
        <time>2018-04-23T07:29:46Z</time>
      </trkpt>
      <trkpt lat="44.93969" lon="3.52964">
        <ele>1002.31</ele>
        <time>2018-04-23T07:30:05Z</time>
      </trkpt>
      <trkpt lat="44.93947" lon="3.52976">
        <ele>1009.04</ele>
        <time>2018-04-23T07:30:26Z</time>
      </trkpt>
      <trkpt lat="44.93925" lon="3.52984">
        <ele>1010.96</ele>
        <time>2018-04-23T07:30:47Z</time>
      </trkpt>
      <trkpt lat="44.93906" lon="3.52981">
        <ele>1011.44</ele>
        <time>2018-04-23T07:31:06Z</time>
      </trkpt>
      <trkpt lat="44.93883" lon="3.52976">
        <ele>1009.52</ele>
        <time>2018-04-23T07:31:26Z</time>
      </trkpt>
      <trkpt lat="44.93861" lon="3.52966">
        <ele>1010</ele>
        <time>2018-04-23T07:31:47Z</time>
      </trkpt>
      <trkpt lat="44.93852" lon="3.52955">
        <ele>1010.48</ele>
        <time>2018-04-23T07:32:09Z</time>
      </trkpt>
      <trkpt lat="44.93841" lon="3.52941">
        <ele>1010</ele>
        <time>2018-04-23T07:32:32Z</time>
      </trkpt>
      <trkpt lat="44.93826" lon="3.52925">
        <ele>1010</ele>
        <time>2018-04-23T07:32:47Z</time>
      </trkpt>
      <trkpt lat="44.93808" lon="3.52901">
        <ele>1007.6</ele>
        <time>2018-04-23T07:33:09Z</time>
      </trkpt>
      <trkpt lat="44.93792" lon="3.52874">
        <ele>1010.96</ele>
        <time>2018-04-23T07:33:28Z</time>
      </trkpt>
      <trkpt lat="44.93782" lon="3.5286">
        <ele>1009.52</ele>
        <time>2018-04-23T07:33:44Z</time>
      </trkpt>
      <trkpt lat="44.93773" lon="3.52851">
        <ele>1009.52</ele>
        <time>2018-04-23T07:34:03Z</time>
      </trkpt>
      <trkpt lat="44.93757" lon="3.52848">
        <ele>1010.96</ele>
        <time>2018-04-23T07:34:25Z</time>
      </trkpt>
      <trkpt lat="44.93735" lon="3.5285">
        <ele>1010.48</ele>
        <time>2018-04-23T07:34:47Z</time>
      </trkpt>
      <trkpt lat="44.93709" lon="3.52865">
        <ele>1011.44</ele>
        <time>2018-04-23T07:35:11Z</time>
      </trkpt>
      <trkpt lat="44.93687" lon="3.52858">
        <ele>1012.41</ele>
        <time>2018-04-23T07:35:30Z</time>
      </trkpt>
      <trkpt lat="44.93679" lon="3.52846">
        <ele>1011.93</ele>
        <time>2018-04-23T07:35:49Z</time>
      </trkpt>
      <trkpt lat="44.93679" lon="3.52845">
        <ele>1014.33</ele>
        <time>2018-04-23T07:36:13Z</time>
      </trkpt>
      <trkpt lat="44.93682" lon="3.52847">
        <ele>1013.85</ele>
        <time>2018-04-23T07:36:43Z</time>
      </trkpt>
      <trkpt lat="44.93681" lon="3.52847">
        <ele>1012.41</ele>
        <time>2018-04-23T07:37:22Z</time>
      </trkpt>
      <trkpt lat="44.93681" lon="3.52851">
        <ele>1013.37</ele>
        <time>2018-04-23T07:37:53Z</time>
      </trkpt>
      <trkpt lat="44.93681" lon="3.52847">
        <ele>1012.41</ele>
        <time>2018-04-23T07:38:17Z</time>
      </trkpt>
      <trkpt lat="44.93675" lon="3.52837">
        <ele>1014.81</ele>
        <time>2018-04-23T07:38:44Z</time>
      </trkpt>
      <trkpt lat="44.93662" lon="3.52818">
        <ele>1013.85</ele>
        <time>2018-04-23T07:39:04Z</time>
      </trkpt>
      <trkpt lat="44.93647" lon="3.52795">
        <ele>1013.85</ele>
        <time>2018-04-23T07:39:25Z</time>
      </trkpt>
      <trkpt lat="44.93635" lon="3.52771">
        <ele>1014.33</ele>
        <time>2018-04-23T07:39:46Z</time>
      </trkpt>
      <trkpt lat="44.93624" lon="3.52749">
        <ele>1014.33</ele>
        <time>2018-04-23T07:40:05Z</time>
      </trkpt>
      <trkpt lat="44.93615" lon="3.52734">
        <ele>1012.41</ele>
        <time>2018-04-23T07:40:24Z</time>
      </trkpt>
      <trkpt lat="44.93602" lon="3.52707">
        <ele>1013.85</ele>
        <time>2018-04-23T07:40:46Z</time>
      </trkpt>
      <trkpt lat="44.93592" lon="3.52688">
        <ele>1011.93</ele>
        <time>2018-04-23T07:41:03Z</time>
      </trkpt>
      <trkpt lat="44.93577" lon="3.52663">
        <ele>1012.41</ele>
        <time>2018-04-23T07:41:24Z</time>
      </trkpt>
      <trkpt lat="44.9357" lon="3.52644">
        <ele>1013.85</ele>
        <time>2018-04-23T07:41:43Z</time>
      </trkpt>
      <trkpt lat="44.93565" lon="3.52627">
        <ele>1013.85</ele>
        <time>2018-04-23T07:41:57Z</time>
      </trkpt>
      <trkpt lat="44.93559" lon="3.52609">
        <ele>1014.33</ele>
        <time>2018-04-23T07:42:13Z</time>
      </trkpt>
      <trkpt lat="44.93554" lon="3.52586">
        <ele>1015.77</ele>
        <time>2018-04-23T07:42:30Z</time>
      </trkpt>
      <trkpt lat="44.93549" lon="3.5256">
        <ele>1017.69</ele>
        <time>2018-04-23T07:42:49Z</time>
      </trkpt>
      <trkpt lat="44.93545" lon="3.52549">
        <ele>1018.65</ele>
        <time>2018-04-23T07:43:02Z</time>
      </trkpt>
      <trkpt lat="44.93536" lon="3.52522">
        <ele>1017.69</ele>
        <time>2018-04-23T07:43:22Z</time>
      </trkpt>
      <trkpt lat="44.93523" lon="3.52496">
        <ele>1017.21</ele>
        <time>2018-04-23T07:43:43Z</time>
      </trkpt>
      <trkpt lat="44.93511" lon="3.52471">
        <ele>1018.17</ele>
        <time>2018-04-23T07:44:02Z</time>
      </trkpt>
      <trkpt lat="44.93492" lon="3.52452">
        <ele>1019.13</ele>
        <time>2018-04-23T07:44:24Z</time>
      </trkpt>
      <trkpt lat="44.93481" lon="3.5244">
        <ele>1019.13</ele>
        <time>2018-04-23T07:44:39Z</time>
      </trkpt>
      <trkpt lat="44.93458" lon="3.5244">
        <ele>1017.21</ele>
        <time>2018-04-23T07:45:01Z</time>
      </trkpt>
      <trkpt lat="44.93442" lon="3.52446">
        <ele>1019.13</ele>
        <time>2018-04-23T07:45:19Z</time>
      </trkpt>
      <trkpt lat="44.93424" lon="3.52449">
        <ele>1020.1</ele>
        <time>2018-04-23T07:45:39Z</time>
      </trkpt>
      <trkpt lat="44.93402" lon="3.52448">
        <ele>1020.1</ele>
        <time>2018-04-23T07:46:00Z</time>
      </trkpt>
      <trkpt lat="44.93378" lon="3.52443">
        <ele>1019.62</ele>
        <time>2018-04-23T07:46:21Z</time>
      </trkpt>
      <trkpt lat="44.93363" lon="3.52443">
        <ele>1016.73</ele>
        <time>2018-04-23T07:46:41Z</time>
      </trkpt>
      <trkpt lat="44.93337" lon="3.52443">
        <ele>1016.25</ele>
        <time>2018-04-23T07:47:04Z</time>
      </trkpt>
      <trkpt lat="44.93327" lon="3.52451">
        <ele>1020.58</ele>
        <time>2018-04-23T07:47:23Z</time>
      </trkpt>
      <trkpt lat="44.93315" lon="3.52449">
        <ele>1022.5</ele>
        <time>2018-04-23T07:47:40Z</time>
      </trkpt>
      <trkpt lat="44.93291" lon="3.5245">
        <ele>1021.06</ele>
        <time>2018-04-23T07:47:59Z</time>
      </trkpt>
      <trkpt lat="44.93274" lon="3.52449">
        <ele>1019.62</ele>
        <time>2018-04-23T07:48:16Z</time>
      </trkpt>
      <trkpt lat="44.93259" lon="3.52446">
        <ele>1018.65</ele>
        <time>2018-04-23T07:48:33Z</time>
      </trkpt>
      <trkpt lat="44.93237" lon="3.52436">
        <ele>1016.73</ele>
        <time>2018-04-23T07:48:54Z</time>
      </trkpt>
      <trkpt lat="44.93223" lon="3.52429">
        <ele>1016.25</ele>
        <time>2018-04-23T07:49:13Z</time>
      </trkpt>
      <trkpt lat="44.93202" lon="3.52426">
        <ele>1015.29</ele>
        <time>2018-04-23T07:49:33Z</time>
      </trkpt>
      <trkpt lat="44.93193" lon="3.52426">
        <ele>1014.33</ele>
        <time>2018-04-23T07:49:49Z</time>
      </trkpt>
      <trkpt lat="44.93184" lon="3.52422">
        <ele>1013.37</ele>
        <time>2018-04-23T07:49:58Z</time>
      </trkpt>
      <trkpt lat="44.93163" lon="3.52413">
        <ele>1015.77</ele>
        <time>2018-04-23T07:50:17Z</time>
      </trkpt>
      <trkpt lat="44.93146" lon="3.52411">
        <ele>1019.62</ele>
        <time>2018-04-23T07:50:35Z</time>
      </trkpt>
      <trkpt lat="44.9313" lon="3.52412">
        <ele>1024.42</ele>
        <time>2018-04-23T07:50:52Z</time>
      </trkpt>
      <trkpt lat="44.93122" lon="3.52401">
        <ele>1031.15</ele>
        <time>2018-04-23T07:51:11Z</time>
      </trkpt>
      <trkpt lat="44.93107" lon="3.52383">
        <ele>1033.55</ele>
        <time>2018-04-23T07:51:31Z</time>
      </trkpt>
      <trkpt lat="44.931" lon="3.52367">
        <ele>1035</ele>
        <time>2018-04-23T07:51:54Z</time>
      </trkpt>
      <trkpt lat="44.93089" lon="3.52344">
        <ele>1038.36</ele>
        <time>2018-04-23T07:52:14Z</time>
      </trkpt>
      <trkpt lat="44.93078" lon="3.52341">
        <ele>1035.96</ele>
        <time>2018-04-23T07:52:33Z</time>
      </trkpt>
      <trkpt lat="44.93064" lon="3.52334">
        <ele>1034.04</ele>
        <time>2018-04-23T07:52:50Z</time>
      </trkpt>
      <trkpt lat="44.93051" lon="3.52319">
        <ele>1035.96</ele>
        <time>2018-04-23T07:53:10Z</time>
      </trkpt>
      <trkpt lat="44.93032" lon="3.52313">
        <ele>1039.32</ele>
        <time>2018-04-23T07:53:29Z</time>
      </trkpt>
      <trkpt lat="44.93011" lon="3.52306">
        <ele>1038.84</ele>
        <time>2018-04-23T07:53:52Z</time>
      </trkpt>
      <trkpt lat="44.92991" lon="3.5231">
        <ele>1035.96</ele>
        <time>2018-04-23T07:54:09Z</time>
      </trkpt>
      <trkpt lat="44.92971" lon="3.52311">
        <ele>1035.48</ele>
        <time>2018-04-23T07:54:27Z</time>
      </trkpt>
      <trkpt lat="44.92953" lon="3.52301">
        <ele>1035.48</ele>
        <time>2018-04-23T07:54:44Z</time>
      </trkpt>
      <trkpt lat="44.92932" lon="3.52284">
        <ele>1034.04</ele>
        <time>2018-04-23T07:55:05Z</time>
      </trkpt>
      <trkpt lat="44.92912" lon="3.52273">
        <ele>1034.52</ele>
        <time>2018-04-23T07:55:26Z</time>
      </trkpt>
      <trkpt lat="44.92892" lon="3.5226">
        <ele>1035</ele>
        <time>2018-04-23T07:55:45Z</time>
      </trkpt>
      <trkpt lat="44.92874" lon="3.52249">
        <ele>1033.55</ele>
        <time>2018-04-23T07:56:03Z</time>
      </trkpt>
      <trkpt lat="44.92852" lon="3.52237">
        <ele>1034.52</ele>
        <time>2018-04-23T07:56:25Z</time>
      </trkpt>
      <trkpt lat="44.92845" lon="3.52235">
        <ele>1035</ele>
        <time>2018-04-23T07:56:31Z</time>
      </trkpt>
      <trkpt lat="44.92828" lon="3.5223">
        <ele>1036.44</ele>
        <time>2018-04-23T07:56:48Z</time>
      </trkpt>
      <trkpt lat="44.92824" lon="3.52224">
        <ele>1035.96</ele>
        <time>2018-04-23T07:56:52Z</time>
      </trkpt>
      <trkpt lat="44.92807" lon="3.52206">
        <ele>1036.92</ele>
        <time>2018-04-23T07:57:14Z</time>
      </trkpt>
      <trkpt lat="44.92795" lon="3.52179">
        <ele>1036.44</ele>
        <time>2018-04-23T07:57:35Z</time>
      </trkpt>
      <trkpt lat="44.9279" lon="3.52171">
        <ele>1036.92</ele>
        <time>2018-04-23T07:57:41Z</time>
      </trkpt>
      <trkpt lat="44.9279" lon="3.52164">
        <ele>1037.4</ele>
        <time>2018-04-23T07:57:45Z</time>
      </trkpt>
      <trkpt lat="44.92769" lon="3.52132">
        <ele>1039.8</ele>
        <time>2018-04-23T07:58:11Z</time>
      </trkpt>
      <trkpt lat="44.92757" lon="3.52126">
        <ele>1044.13</ele>
        <time>2018-04-23T07:58:27Z</time>
      </trkpt>
      <trkpt lat="44.92715" lon="3.52112">
        <ele>1048.94</ele>
        <time>2018-04-23T07:58:52Z</time>
      </trkpt>
      <trkpt lat="44.92696" lon="3.52092">
        <ele>1053.74</ele>
        <time>2018-04-23T07:59:17Z</time>
      </trkpt>
      <trkpt lat="44.92684" lon="3.5208">
        <ele>1053.74</ele>
        <time>2018-04-23T07:59:38Z</time>
      </trkpt>
      <trkpt lat="44.92656" lon="3.52067">
        <ele>1051.82</ele>
        <time>2018-04-23T08:00:03Z</time>
      </trkpt>
      <trkpt lat="44.92646" lon="3.52049">
        <ele>1051.34</ele>
        <time>2018-04-23T08:00:24Z</time>
      </trkpt>
      <trkpt lat="44.92639" lon="3.52038">
        <ele>1051.82</ele>
        <time>2018-04-23T08:00:30Z</time>
      </trkpt>
      <trkpt lat="44.926" lon="3.51998">
        <ele>1054.7</ele>
        <time>2018-04-23T08:00:51Z</time>
      </trkpt>
      <trkpt lat="44.92606" lon="3.51978">
        <ele>1056.63</ele>
        <time>2018-04-23T08:01:12Z</time>
      </trkpt>
      <trkpt lat="44.92605" lon="3.51957">
        <ele>1056.15</ele>
        <time>2018-04-23T08:01:34Z</time>
      </trkpt>
      <trkpt lat="44.92607" lon="3.51955">
        <ele>1056.15</ele>
        <time>2018-04-23T08:01:37Z</time>
      </trkpt>
      <trkpt lat="44.92629" lon="3.51948">
        <ele>1057.11</ele>
        <time>2018-04-23T08:01:57Z</time>
      </trkpt>
      <trkpt lat="44.92655" lon="3.51938">
        <ele>1057.11</ele>
        <time>2018-04-23T08:02:19Z</time>
      </trkpt>
      <trkpt lat="44.92646" lon="3.51907">
        <ele>1057.59</ele>
        <time>2018-04-23T08:02:40Z</time>
      </trkpt>
      <trkpt lat="44.92526" lon="3.51882">
        <ele>1065.76</ele>
        <time>2018-04-23T08:02:52Z</time>
      </trkpt>
      <trkpt lat="44.92515" lon="3.51875">
        <ele>1075.37</ele>
        <time>2018-04-23T08:03:02Z</time>
      </trkpt>
      <trkpt lat="44.92506" lon="3.51866">
        <ele>1076.33</ele>
        <time>2018-04-23T08:03:15Z</time>
      </trkpt>
      <trkpt lat="44.92498" lon="3.51856">
        <ele>1075.37</ele>
        <time>2018-04-23T08:03:25Z</time>
      </trkpt>
      <trkpt lat="44.92495" lon="3.51846">
        <ele>1074.89</ele>
        <time>2018-04-23T08:03:31Z</time>
      </trkpt>
      <trkpt lat="44.92476" lon="3.51818">
        <ele>1076.33</ele>
        <time>2018-04-23T08:03:50Z</time>
      </trkpt>
      <trkpt lat="44.9246" lon="3.51795">
        <ele>1076.81</ele>
        <time>2018-04-23T08:04:12Z</time>
      </trkpt>
      <trkpt lat="44.92446" lon="3.51769">
        <ele>1077.29</ele>
        <time>2018-04-23T08:04:37Z</time>
      </trkpt>
      <trkpt lat="44.92442" lon="3.51743">
        <ele>1077.29</ele>
        <time>2018-04-23T08:04:57Z</time>
      </trkpt>
      <trkpt lat="44.92428" lon="3.51713">
        <ele>1077.78</ele>
        <time>2018-04-23T08:05:21Z</time>
      </trkpt>
      <trkpt lat="44.92412" lon="3.51691">
        <ele>1077.29</ele>
        <time>2018-04-23T08:05:46Z</time>
      </trkpt>
      <trkpt lat="44.92398" lon="3.51667">
        <ele>1075.37</ele>
        <time>2018-04-23T08:06:07Z</time>
      </trkpt>
      <trkpt lat="44.92381" lon="3.51651">
        <ele>1073.45</ele>
        <time>2018-04-23T08:06:29Z</time>
      </trkpt>
      <trkpt lat="44.92363" lon="3.51633">
        <ele>1073.93</ele>
        <time>2018-04-23T08:06:52Z</time>
      </trkpt>
      <trkpt lat="44.92345" lon="3.51613">
        <ele>1074.41</ele>
        <time>2018-04-23T08:07:18Z</time>
      </trkpt>
      <trkpt lat="44.92332" lon="3.51621">
        <ele>1079.7</ele>
        <time>2018-04-23T08:07:45Z</time>
      </trkpt>
      <trkpt lat="44.9235" lon="3.51623">
        <ele>1090.75</ele>
        <time>2018-04-23T08:08:11Z</time>
      </trkpt>
      <trkpt lat="44.92353" lon="3.51632">
        <ele>1093.64</ele>
        <time>2018-04-23T08:08:38Z</time>
      </trkpt>
      <trkpt lat="44.9235" lon="3.5162">
        <ele>1089.79</ele>
        <time>2018-04-23T08:09:06Z</time>
      </trkpt>
      <trkpt lat="44.92325" lon="3.51626">
        <ele>1086.91</ele>
        <time>2018-04-23T08:09:27Z</time>
      </trkpt>
      <trkpt lat="44.92335" lon="3.51614">
        <ele>1087.39</ele>
        <time>2018-04-23T08:09:58Z</time>
      </trkpt>
      <trkpt lat="44.92317" lon="3.51578">
        <ele>1079.22</ele>
        <time>2018-04-23T08:10:21Z</time>
      </trkpt>
      <trkpt lat="44.92317" lon="3.51558">
        <ele>1076.33</ele>
        <time>2018-04-23T08:10:44Z</time>
      </trkpt>
      <trkpt lat="44.92299" lon="3.51533">
        <ele>1070.57</ele>
        <time>2018-04-23T08:11:07Z</time>
      </trkpt>
      <trkpt lat="44.92292" lon="3.51505">
        <ele>1069.6</ele>
        <time>2018-04-23T08:11:31Z</time>
      </trkpt>
      <trkpt lat="44.92274" lon="3.51484">
        <ele>1068.16</ele>
        <time>2018-04-23T08:11:51Z</time>
      </trkpt>
      <trkpt lat="44.92269" lon="3.51459">
        <ele>1069.6</ele>
        <time>2018-04-23T08:12:13Z</time>
      </trkpt>
      <trkpt lat="44.92255" lon="3.51432">
        <ele>1067.2</ele>
        <time>2018-04-23T08:12:36Z</time>
      </trkpt>
      <trkpt lat="44.92244" lon="3.51413">
        <ele>1067.68</ele>
        <time>2018-04-23T08:12:56Z</time>
      </trkpt>
      <trkpt lat="44.92224" lon="3.51386">
        <ele>1064.32</ele>
        <time>2018-04-23T08:13:18Z</time>
      </trkpt>
      <trkpt lat="44.92217" lon="3.51364">
        <ele>1063.36</ele>
        <time>2018-04-23T08:13:35Z</time>
      </trkpt>
      <trkpt lat="44.92212" lon="3.51334">
        <ele>1058.07</ele>
        <time>2018-04-23T08:13:57Z</time>
      </trkpt>
      <trkpt lat="44.9221" lon="3.51302">
        <ele>1054.22</ele>
        <time>2018-04-23T08:14:21Z</time>
      </trkpt>
      <trkpt lat="44.92205" lon="3.51287">
        <ele>1056.15</ele>
        <time>2018-04-23T08:14:39Z</time>
      </trkpt>
      <trkpt lat="44.92202" lon="3.51273">
        <ele>1057.59</ele>
        <time>2018-04-23T08:14:57Z</time>
      </trkpt>
      <trkpt lat="44.92202" lon="3.51253">
        <ele>1059.99</ele>
        <time>2018-04-23T08:15:15Z</time>
      </trkpt>
      <trkpt lat="44.92198" lon="3.51232">
        <ele>1059.51</ele>
        <time>2018-04-23T08:15:33Z</time>
      </trkpt>
      <trkpt lat="44.92193" lon="3.51206">
        <ele>1059.99</ele>
        <time>2018-04-23T08:15:53Z</time>
      </trkpt>
      <trkpt lat="44.92188" lon="3.51184">
        <ele>1060.95</ele>
        <time>2018-04-23T08:16:13Z</time>
      </trkpt>
      <trkpt lat="44.92181" lon="3.51152">
        <ele>1061.43</ele>
        <time>2018-04-23T08:16:32Z</time>
      </trkpt>
      <trkpt lat="44.92177" lon="3.51122">
        <ele>1061.91</ele>
        <time>2018-04-23T08:16:53Z</time>
      </trkpt>
      <trkpt lat="44.92156" lon="3.51089">
        <ele>1062.87</ele>
        <time>2018-04-23T08:17:15Z</time>
      </trkpt>
      <trkpt lat="44.92146" lon="3.51055">
        <ele>1063.36</ele>
        <time>2018-04-23T08:17:38Z</time>
      </trkpt>
      <trkpt lat="44.92147" lon="3.51024">
        <ele>1065.28</ele>
        <time>2018-04-23T08:18:01Z</time>
      </trkpt>
      <trkpt lat="44.92132" lon="3.51001">
        <ele>1069.12</ele>
        <time>2018-04-23T08:18:20Z</time>
      </trkpt>
      <trkpt lat="44.92119" lon="3.50978">
        <ele>1072.97</ele>
        <time>2018-04-23T08:18:39Z</time>
      </trkpt>
      <trkpt lat="44.92101" lon="3.50951">
        <ele>1072.49</ele>
        <time>2018-04-23T08:19:00Z</time>
      </trkpt>
      <trkpt lat="44.92096" lon="3.50934">
        <ele>1071.53</ele>
        <time>2018-04-23T08:19:20Z</time>
      </trkpt>
      <trkpt lat="44.9209" lon="3.50917">
        <ele>1071.05</ele>
        <time>2018-04-23T08:19:42Z</time>
      </trkpt>
      <trkpt lat="44.92076" lon="3.50895">
        <ele>1065.76</ele>
        <time>2018-04-23T08:20:06Z</time>
      </trkpt>
      <trkpt lat="44.92072" lon="3.50876">
        <ele>1063.84</ele>
        <time>2018-04-23T08:20:25Z</time>
      </trkpt>
      <trkpt lat="44.92067" lon="3.50858">
        <ele>1063.36</ele>
        <time>2018-04-23T08:20:44Z</time>
      </trkpt>
      <trkpt lat="44.92056" lon="3.50841">
        <ele>1061.43</ele>
        <time>2018-04-23T08:21:04Z</time>
      </trkpt>
      <trkpt lat="44.92047" lon="3.50824">
        <ele>1062.39</ele>
        <time>2018-04-23T08:21:24Z</time>
      </trkpt>
      <trkpt lat="44.92042" lon="3.50809">
        <ele>1062.87</ele>
        <time>2018-04-23T08:21:43Z</time>
      </trkpt>
      <trkpt lat="44.92031" lon="3.50781">
        <ele>1060.47</ele>
        <time>2018-04-23T08:22:05Z</time>
      </trkpt>
      <trkpt lat="44.9202" lon="3.50765">
        <ele>1059.99</ele>
        <time>2018-04-23T08:22:22Z</time>
      </trkpt>
      <trkpt lat="44.92013" lon="3.5074">
        <ele>1059.03</ele>
        <time>2018-04-23T08:22:43Z</time>
      </trkpt>
      <trkpt lat="44.92002" lon="3.50709">
        <ele>1056.15</ele>
        <time>2018-04-23T08:23:05Z</time>
      </trkpt>
      <trkpt lat="44.91986" lon="3.50684">
        <ele>1055.67</ele>
        <time>2018-04-23T08:23:25Z</time>
      </trkpt>
      <trkpt lat="44.91974" lon="3.50658">
        <ele>1054.22</ele>
        <time>2018-04-23T08:23:47Z</time>
      </trkpt>
      <trkpt lat="44.9197" lon="3.5064">
        <ele>1051.34</ele>
        <time>2018-04-23T08:24:06Z</time>
      </trkpt>
      <trkpt lat="44.91969" lon="3.50629">
        <ele>1047.49</ele>
        <time>2018-04-23T08:24:25Z</time>
      </trkpt>
      <trkpt lat="44.91967" lon="3.50625">
        <ele>1045.09</ele>
        <time>2018-04-23T08:24:52Z</time>
      </trkpt>
      <trkpt lat="44.91945" lon="3.50611">
        <ele>1046.05</ele>
        <time>2018-04-23T08:25:16Z</time>
      </trkpt>
      <trkpt lat="44.91925" lon="3.50588">
        <ele>1047.01</ele>
        <time>2018-04-23T08:25:36Z</time>
      </trkpt>
      <trkpt lat="44.91907" lon="3.50562">
        <ele>1046.05</ele>
        <time>2018-04-23T08:25:54Z</time>
      </trkpt>
      <trkpt lat="44.9191" lon="3.50553">
        <ele>1044.61</ele>
        <time>2018-04-23T08:26:11Z</time>
      </trkpt>
      <trkpt lat="44.91904" lon="3.50531">
        <ele>1045.09</ele>
        <time>2018-04-23T08:26:27Z</time>
      </trkpt>
      <trkpt lat="44.91898" lon="3.50497">
        <ele>1043.65</ele>
        <time>2018-04-23T08:26:47Z</time>
      </trkpt>
      <trkpt lat="44.91884" lon="3.50483">
        <ele>1043.65</ele>
        <time>2018-04-23T08:27:06Z</time>
      </trkpt>
      <trkpt lat="44.91861" lon="3.50475">
        <ele>1044.61</ele>
        <time>2018-04-23T08:27:25Z</time>
      </trkpt>
      <trkpt lat="44.9186" lon="3.50476">
        <ele>1044.13</ele>
        <time>2018-04-23T08:27:26Z</time>
      </trkpt>
      <trkpt lat="44.91832" lon="3.50488">
        <ele>1046.53</ele>
        <time>2018-04-23T08:27:50Z</time>
      </trkpt>
      <trkpt lat="44.91809" lon="3.50492">
        <ele>1055.18</ele>
        <time>2018-04-23T08:28:14Z</time>
      </trkpt>
      <trkpt lat="44.91781" lon="3.50483">
        <ele>1064.32</ele>
        <time>2018-04-23T08:28:36Z</time>
      </trkpt>
      <trkpt lat="44.91762" lon="3.50472">
        <ele>1066.72</ele>
        <time>2018-04-23T08:29:01Z</time>
      </trkpt>
      <trkpt lat="44.91748" lon="3.50453">
        <ele>1069.6</ele>
        <time>2018-04-23T08:29:22Z</time>
      </trkpt>
      <trkpt lat="44.91732" lon="3.50444">
        <ele>1068.16</ele>
        <time>2018-04-23T08:29:43Z</time>
      </trkpt>
      <trkpt lat="44.91724" lon="3.5042">
        <ele>1069.6</ele>
        <time>2018-04-23T08:30:03Z</time>
      </trkpt>
      <trkpt lat="44.91697" lon="3.50408">
        <ele>1071.05</ele>
        <time>2018-04-23T08:30:25Z</time>
      </trkpt>
      <trkpt lat="44.91662" lon="3.50407">
        <ele>1072.01</ele>
        <time>2018-04-23T08:30:50Z</time>
      </trkpt>
      <trkpt lat="44.91632" lon="3.50414">
        <ele>1073.45</ele>
        <time>2018-04-23T08:31:14Z</time>
      </trkpt>
      <trkpt lat="44.91605" lon="3.50422">
        <ele>1073.93</ele>
        <time>2018-04-23T08:31:36Z</time>
      </trkpt>
      <trkpt lat="44.916" lon="3.50424">
        <ele>1073.45</ele>
        <time>2018-04-23T08:31:40Z</time>
      </trkpt>
      <trkpt lat="44.91572" lon="3.5044">
        <ele>1074.41</ele>
        <time>2018-04-23T08:32:02Z</time>
      </trkpt>
      <trkpt lat="44.9155" lon="3.50455">
        <ele>1072.01</ele>
        <time>2018-04-23T08:32:25Z</time>
      </trkpt>
      <trkpt lat="44.91527" lon="3.50467">
        <ele>1072.01</ele>
        <time>2018-04-23T08:32:49Z</time>
      </trkpt>
      <trkpt lat="44.91503" lon="3.50469">
        <ele>1072.97</ele>
        <time>2018-04-23T08:33:11Z</time>
      </trkpt>
      <trkpt lat="44.91479" lon="3.5046">
        <ele>1076.81</ele>
        <time>2018-04-23T08:33:35Z</time>
      </trkpt>
      <trkpt lat="44.91463" lon="3.50445">
        <ele>1079.7</ele>
        <time>2018-04-23T08:33:56Z</time>
      </trkpt>
      <trkpt lat="44.91447" lon="3.5043">
        <ele>1084.02</ele>
        <time>2018-04-23T08:34:17Z</time>
      </trkpt>
      <trkpt lat="44.91445" lon="3.5043">
        <ele>1084.5</ele>
        <time>2018-04-23T08:34:18Z</time>
      </trkpt>
      <trkpt lat="44.91418" lon="3.50427">
        <ele>1089.31</ele>
        <time>2018-04-23T08:34:42Z</time>
      </trkpt>
      <trkpt lat="44.9139" lon="3.50415">
        <ele>1090.75</ele>
        <time>2018-04-23T08:35:06Z</time>
      </trkpt>
      <trkpt lat="44.91364" lon="3.50402">
        <ele>1091.23</ele>
        <time>2018-04-23T08:35:28Z</time>
      </trkpt>
      <trkpt lat="44.91332" lon="3.50394">
        <ele>1089.31</ele>
        <time>2018-04-23T08:35:51Z</time>
      </trkpt>
      <trkpt lat="44.91301" lon="3.50392">
        <ele>1088.35</ele>
        <time>2018-04-23T08:36:14Z</time>
      </trkpt>
      <trkpt lat="44.91273" lon="3.50391">
        <ele>1089.31</ele>
        <time>2018-04-23T08:36:35Z</time>
      </trkpt>
      <trkpt lat="44.91247" lon="3.50392">
        <ele>1090.75</ele>
        <time>2018-04-23T08:36:57Z</time>
      </trkpt>
      <trkpt lat="44.91235" lon="3.50396">
        <ele>1091.71</ele>
        <time>2018-04-23T08:37:15Z</time>
      </trkpt>
      <trkpt lat="44.91219" lon="3.50397">
        <ele>1092.68</ele>
        <time>2018-04-23T08:37:37Z</time>
      </trkpt>
      <trkpt lat="44.91223" lon="3.50395">
        <ele>1092.68</ele>
        <time>2018-04-23T08:38:20Z</time>
      </trkpt>
      <trkpt lat="44.91225" lon="3.50397">
        <ele>1093.64</ele>
        <time>2018-04-23T08:38:59Z</time>
      </trkpt>
      <trkpt lat="44.91225" lon="3.50395">
        <ele>1096.52</ele>
        <time>2018-04-23T08:39:22Z</time>
      </trkpt>
      <trkpt lat="44.91224" lon="3.50397">
        <ele>1097.48</ele>
        <time>2018-04-23T08:39:40Z</time>
      </trkpt>
      <trkpt lat="44.91223" lon="3.50395">
        <ele>1098.92</ele>
        <time>2018-04-23T08:39:54Z</time>
      </trkpt>
      <trkpt lat="44.91224" lon="3.50396">
        <ele>1097.48</ele>
        <time>2018-04-23T08:40:19Z</time>
      </trkpt>
      <trkpt lat="44.91218" lon="3.50402">
        <ele>1096.04</ele>
        <time>2018-04-23T08:40:29Z</time>
      </trkpt>
      <trkpt lat="44.91189" lon="3.50409">
        <ele>1095.08</ele>
        <time>2018-04-23T08:40:52Z</time>
      </trkpt>
      <trkpt lat="44.91168" lon="3.50415">
        <ele>1093.16</ele>
        <time>2018-04-23T08:41:12Z</time>
      </trkpt>
      <trkpt lat="44.9115" lon="3.50419">
        <ele>1090.75</ele>
        <time>2018-04-23T08:41:29Z</time>
      </trkpt>
      <trkpt lat="44.9113" lon="3.50422">
        <ele>1089.31</ele>
        <time>2018-04-23T08:41:45Z</time>
      </trkpt>
      <trkpt lat="44.91113" lon="3.50426">
        <ele>1088.83</ele>
        <time>2018-04-23T08:42:05Z</time>
      </trkpt>
      <trkpt lat="44.91094" lon="3.50448">
        <ele>1088.35</ele>
        <time>2018-04-23T08:42:25Z</time>
      </trkpt>
      <trkpt lat="44.91093" lon="3.50449">
        <ele>1088.35</ele>
        <time>2018-04-23T08:42:26Z</time>
      </trkpt>
      <trkpt lat="44.91082" lon="3.5048">
        <ele>1089.31</ele>
        <time>2018-04-23T08:42:46Z</time>
      </trkpt>
      <trkpt lat="44.91067" lon="3.50493">
        <ele>1088.83</ele>
        <time>2018-04-23T08:43:01Z</time>
      </trkpt>
      <trkpt lat="44.91044" lon="3.50492">
        <ele>1094.12</ele>
        <time>2018-04-23T08:43:23Z</time>
      </trkpt>
      <trkpt lat="44.91032" lon="3.50496">
        <ele>1096.52</ele>
        <time>2018-04-23T08:43:46Z</time>
      </trkpt>
      <trkpt lat="44.91028" lon="3.50501">
        <ele>1097</ele>
        <time>2018-04-23T08:44:10Z</time>
      </trkpt>
      <trkpt lat="44.91027" lon="3.50518">
        <ele>1094.12</ele>
        <time>2018-04-23T08:44:21Z</time>
      </trkpt>
      <trkpt lat="44.91004" lon="3.50533">
        <ele>1096.52</ele>
        <time>2018-04-23T08:44:42Z</time>
      </trkpt>
      <trkpt lat="44.90995" lon="3.5054">
        <ele>1098.44</ele>
        <time>2018-04-23T08:44:50Z</time>
      </trkpt>
      <trkpt lat="44.90984" lon="3.50564">
        <ele>1100.85</ele>
        <time>2018-04-23T08:45:08Z</time>
      </trkpt>
      <trkpt lat="44.90966" lon="3.50564">
        <ele>1104.21</ele>
        <time>2018-04-23T08:45:25Z</time>
      </trkpt>
      <trkpt lat="44.90962" lon="3.5057">
        <ele>1104.69</ele>
        <time>2018-04-23T08:45:44Z</time>
      </trkpt>
      <trkpt lat="44.90963" lon="3.50581">
        <ele>1104.69</ele>
        <time>2018-04-23T08:46:17Z</time>
      </trkpt>
      <trkpt lat="44.90978" lon="3.50575">
        <ele>1104.69</ele>
        <time>2018-04-23T08:46:32Z</time>
      </trkpt>
      <trkpt lat="44.90999" lon="3.50547">
        <ele>1097.48</ele>
        <time>2018-04-23T08:46:50Z</time>
      </trkpt>
      <trkpt lat="44.91002" lon="3.50542">
        <ele>1096.04</ele>
        <time>2018-04-23T08:46:54Z</time>
      </trkpt>
      <trkpt lat="44.90989" lon="3.50523">
        <ele>1096.52</ele>
        <time>2018-04-23T08:47:10Z</time>
      </trkpt>
      <trkpt lat="44.90978" lon="3.50498">
        <ele>1097</ele>
        <time>2018-04-23T08:47:31Z</time>
      </trkpt>
      <trkpt lat="44.90977" lon="3.50495">
        <ele>1097</ele>
        <time>2018-04-23T08:47:33Z</time>
      </trkpt>
      <trkpt lat="44.90968" lon="3.50454">
        <ele>1098.92</ele>
        <time>2018-04-23T08:47:57Z</time>
      </trkpt>
      <trkpt lat="44.90968" lon="3.50417">
        <ele>1098.92</ele>
        <time>2018-04-23T08:48:19Z</time>
      </trkpt>
      <trkpt lat="44.90962" lon="3.50399">
        <ele>1101.81</ele>
        <time>2018-04-23T08:48:34Z</time>
      </trkpt>
      <trkpt lat="44.90942" lon="3.50379">
        <ele>1104.69</ele>
        <time>2018-04-23T08:48:54Z</time>
      </trkpt>
      <trkpt lat="44.90918" lon="3.50363">
        <ele>1108.06</ele>
        <time>2018-04-23T08:49:16Z</time>
      </trkpt>
      <trkpt lat="44.90895" lon="3.50359">
        <ele>1114.31</ele>
        <time>2018-04-23T08:49:33Z</time>
      </trkpt>
      <trkpt lat="44.90897" lon="3.50372">
        <ele>1117.19</ele>
        <time>2018-04-23T08:49:53Z</time>
      </trkpt>
      <trkpt lat="44.90893" lon="3.50381">
        <ele>1118.63</ele>
        <time>2018-04-23T08:50:20Z</time>
      </trkpt>
      <trkpt lat="44.9089" lon="3.50383">
        <ele>1117.19</ele>
        <time>2018-04-23T08:50:51Z</time>
      </trkpt>
      <trkpt lat="44.90897" lon="3.50375">
        <ele>1113.82</ele>
        <time>2018-04-23T08:51:14Z</time>
      </trkpt>
      <trkpt lat="44.90894" lon="3.50375">
        <ele>1111.42</ele>
        <time>2018-04-23T08:51:39Z</time>
      </trkpt>
      <trkpt lat="44.90894" lon="3.50374">
        <ele>1109.5</ele>
        <time>2018-04-23T08:52:06Z</time>
      </trkpt>
      <trkpt lat="44.90894" lon="3.50374">
        <ele>1105.17</ele>
        <time>2018-04-23T08:52:37Z</time>
      </trkpt>
      <trkpt lat="44.90899" lon="3.50372">
        <ele>1105.17</ele>
        <time>2018-04-23T08:53:10Z</time>
      </trkpt>
      <trkpt lat="44.90894" lon="3.50374">
        <ele>1105.17</ele>
        <time>2018-04-23T08:53:34Z</time>
      </trkpt>
      <trkpt lat="44.90885" lon="3.50364">
        <ele>1105.65</ele>
        <time>2018-04-23T08:53:48Z</time>
      </trkpt>
      <trkpt lat="44.90879" lon="3.50354">
        <ele>1105.65</ele>
        <time>2018-04-23T08:53:58Z</time>
      </trkpt>
      <trkpt lat="44.90867" lon="3.50331">
        <ele>1106.61</ele>
        <time>2018-04-23T08:54:15Z</time>
      </trkpt>
      <trkpt lat="44.90858" lon="3.50308">
        <ele>1106.13</ele>
        <time>2018-04-23T08:54:30Z</time>
      </trkpt>
      <trkpt lat="44.90855" lon="3.50305">
        <ele>1105.17</ele>
        <time>2018-04-23T08:54:48Z</time>
      </trkpt>
      <trkpt lat="44.90847" lon="3.50283">
        <ele>1106.13</ele>
        <time>2018-04-23T08:55:07Z</time>
      </trkpt>
      <trkpt lat="44.90832" lon="3.50261">
        <ele>1106.61</ele>
        <time>2018-04-23T08:55:24Z</time>
      </trkpt>
      <trkpt lat="44.90825" lon="3.50249">
        <ele>1107.1</ele>
        <time>2018-04-23T08:55:41Z</time>
      </trkpt>
      <trkpt lat="44.90802" lon="3.50229">
        <ele>1106.13</ele>
        <time>2018-04-23T08:55:59Z</time>
      </trkpt>
      <trkpt lat="44.9078" lon="3.50208">
        <ele>1106.13</ele>
        <time>2018-04-23T08:56:18Z</time>
      </trkpt>
      <trkpt lat="44.90755" lon="3.50197">
        <ele>1105.17</ele>
        <time>2018-04-23T08:56:35Z</time>
      </trkpt>
      <trkpt lat="44.9073" lon="3.50193">
        <ele>1104.21</ele>
        <time>2018-04-23T08:56:54Z</time>
      </trkpt>
      <trkpt lat="44.90728" lon="3.50195">
        <ele>1104.21</ele>
        <time>2018-04-23T08:56:57Z</time>
      </trkpt>
      <trkpt lat="44.90722" lon="3.50197">
        <ele>1104.21</ele>
        <time>2018-04-23T08:57:02Z</time>
      </trkpt>
      <trkpt lat="44.90699" lon="3.50195">
        <ele>1101.33</ele>
        <time>2018-04-23T08:57:22Z</time>
      </trkpt>
      <trkpt lat="44.907" lon="3.50191">
        <ele>1099.4</ele>
        <time>2018-04-23T08:57:42Z</time>
      </trkpt>
      <trkpt lat="44.90701" lon="3.5019">
        <ele>1097.48</ele>
        <time>2018-04-23T08:58:02Z</time>
      </trkpt>
      <trkpt lat="44.90687" lon="3.50195">
        <ele>1097</ele>
        <time>2018-04-23T08:58:15Z</time>
      </trkpt>
      <trkpt lat="44.90668" lon="3.50195">
        <ele>1096.52</ele>
        <time>2018-04-23T08:58:33Z</time>
      </trkpt>
      <trkpt lat="44.9065" lon="3.50195">
        <ele>1096.52</ele>
        <time>2018-04-23T08:58:49Z</time>
      </trkpt>
      <trkpt lat="44.9064" lon="3.50192">
        <ele>1098.44</ele>
        <time>2018-04-23T08:59:03Z</time>
      </trkpt>
      <trkpt lat="44.90629" lon="3.50193">
        <ele>1098.92</ele>
        <time>2018-04-23T08:59:16Z</time>
      </trkpt>
      <trkpt lat="44.90622" lon="3.50194">
        <ele>1098.44</ele>
        <time>2018-04-23T08:59:23Z</time>
      </trkpt>
      <trkpt lat="44.90602" lon="3.50198">
        <ele>1098.44</ele>
        <time>2018-04-23T08:59:41Z</time>
      </trkpt>
      <trkpt lat="44.9058" lon="3.50203">
        <ele>1098.44</ele>
        <time>2018-04-23T08:59:59Z</time>
      </trkpt>
      <trkpt lat="44.90559" lon="3.50208">
        <ele>1099.4</ele>
        <time>2018-04-23T09:00:16Z</time>
      </trkpt>
      <trkpt lat="44.90539" lon="3.5021">
        <ele>1098.92</ele>
        <time>2018-04-23T09:00:34Z</time>
      </trkpt>
      <trkpt lat="44.90522" lon="3.50207">
        <ele>1098.92</ele>
        <time>2018-04-23T09:00:49Z</time>
      </trkpt>
      <trkpt lat="44.90518" lon="3.5021">
        <ele>1097.96</ele>
        <time>2018-04-23T09:01:05Z</time>
      </trkpt>
      <trkpt lat="44.90514" lon="3.50206">
        <ele>1097.96</ele>
        <time>2018-04-23T09:01:19Z</time>
      </trkpt>
      <trkpt lat="44.90506" lon="3.50203">
        <ele>1098.44</ele>
        <time>2018-04-23T09:01:27Z</time>
      </trkpt>
      <trkpt lat="44.90486" lon="3.50196">
        <ele>1099.4</ele>
        <time>2018-04-23T09:01:45Z</time>
      </trkpt>
      <trkpt lat="44.90468" lon="3.50196">
        <ele>1097.96</ele>
        <time>2018-04-23T09:02:01Z</time>
      </trkpt>
      <trkpt lat="44.90449" lon="3.50197">
        <ele>1096.52</ele>
        <time>2018-04-23T09:02:18Z</time>
      </trkpt>
      <trkpt lat="44.90425" lon="3.50198">
        <ele>1097.48</ele>
        <time>2018-04-23T09:02:37Z</time>
      </trkpt>
      <trkpt lat="44.90404" lon="3.50192">
        <ele>1099.89</ele>
        <time>2018-04-23T09:02:54Z</time>
      </trkpt>
      <trkpt lat="44.90383" lon="3.50183">
        <ele>1104.21</ele>
        <time>2018-04-23T09:03:11Z</time>
      </trkpt>
      <trkpt lat="44.90363" lon="3.50167">
        <ele>1105.17</ele>
        <time>2018-04-23T09:03:29Z</time>
      </trkpt>
      <trkpt lat="44.9035" lon="3.50154">
        <ele>1105.65</ele>
        <time>2018-04-23T09:03:43Z</time>
      </trkpt>
      <trkpt lat="44.90337" lon="3.50136">
        <ele>1103.25</ele>
        <time>2018-04-23T09:03:59Z</time>
      </trkpt>
      <trkpt lat="44.90322" lon="3.50119">
        <ele>1105.17</ele>
        <time>2018-04-23T09:04:15Z</time>
      </trkpt>
      <trkpt lat="44.90305" lon="3.50111">
        <ele>1106.13</ele>
        <time>2018-04-23T09:04:31Z</time>
      </trkpt>
      <trkpt lat="44.90287" lon="3.50104">
        <ele>1109.98</ele>
        <time>2018-04-23T09:04:45Z</time>
      </trkpt>
      <trkpt lat="44.90268" lon="3.50096">
        <ele>1111.9</ele>
        <time>2018-04-23T09:05:01Z</time>
      </trkpt>
      <trkpt lat="44.90251" lon="3.50087">
        <ele>1113.34</ele>
        <time>2018-04-23T09:05:16Z</time>
      </trkpt>
      <trkpt lat="44.90231" lon="3.50075">
        <ele>1115.75</ele>
        <time>2018-04-23T09:05:33Z</time>
      </trkpt>
      <trkpt lat="44.90215" lon="3.50064">
        <ele>1117.67</ele>
        <time>2018-04-23T09:05:49Z</time>
      </trkpt>
      <trkpt lat="44.90194" lon="3.50053">
        <ele>1119.59</ele>
        <time>2018-04-23T09:06:06Z</time>
      </trkpt>
      <trkpt lat="44.9017" lon="3.50045">
        <ele>1119.11</ele>
        <time>2018-04-23T09:06:25Z</time>
      </trkpt>
      <trkpt lat="44.9015" lon="3.5004">
        <ele>1117.67</ele>
        <time>2018-04-23T09:06:42Z</time>
      </trkpt>
      <trkpt lat="44.90127" lon="3.50036">
        <ele>1117.19</ele>
        <time>2018-04-23T09:07:00Z</time>
      </trkpt>
      <trkpt lat="44.90106" lon="3.50035">
        <ele>1116.71</ele>
        <time>2018-04-23T09:07:17Z</time>
      </trkpt>
      <trkpt lat="44.90081" lon="3.50038">
        <ele>1117.67</ele>
        <time>2018-04-23T09:07:36Z</time>
      </trkpt>
      <trkpt lat="44.90058" lon="3.50042">
        <ele>1119.59</ele>
        <time>2018-04-23T09:07:54Z</time>
      </trkpt>
      <trkpt lat="44.90033" lon="3.50045">
        <ele>1122</ele>
        <time>2018-04-23T09:08:13Z</time>
      </trkpt>
      <trkpt lat="44.90014" lon="3.50048">
        <ele>1125.36</ele>
        <time>2018-04-23T09:08:29Z</time>
      </trkpt>
      <trkpt lat="44.89992" lon="3.50053">
        <ele>1125.84</ele>
        <time>2018-04-23T09:08:47Z</time>
      </trkpt>
      <trkpt lat="44.89969" lon="3.50056">
        <ele>1128.73</ele>
        <time>2018-04-23T09:09:07Z</time>
      </trkpt>
      <trkpt lat="44.89942" lon="3.50065">
        <ele>1132.57</ele>
        <time>2018-04-23T09:09:29Z</time>
      </trkpt>
      <trkpt lat="44.89922" lon="3.50073">
        <ele>1131.61</ele>
        <time>2018-04-23T09:09:46Z</time>
      </trkpt>
      <trkpt lat="44.89901" lon="3.50087">
        <ele>1128.73</ele>
        <time>2018-04-23T09:10:04Z</time>
      </trkpt>
      <trkpt lat="44.89874" lon="3.50097">
        <ele>1126.8</ele>
        <time>2018-04-23T09:10:25Z</time>
      </trkpt>
      <trkpt lat="44.89852" lon="3.50093">
        <ele>1128.24</ele>
        <time>2018-04-23T09:10:41Z</time>
      </trkpt>
      <trkpt lat="44.8983" lon="3.50084">
        <ele>1129.69</ele>
        <time>2018-04-23T09:10:59Z</time>
      </trkpt>
      <trkpt lat="44.89808" lon="3.50072">
        <ele>1130.65</ele>
        <time>2018-04-23T09:11:19Z</time>
      </trkpt>
      <trkpt lat="44.89782" lon="3.50059">
        <ele>1130.65</ele>
        <time>2018-04-23T09:11:39Z</time>
      </trkpt>
      <trkpt lat="44.8976" lon="3.50048">
        <ele>1131.61</ele>
        <time>2018-04-23T09:11:57Z</time>
      </trkpt>
      <trkpt lat="44.89738" lon="3.5004">
        <ele>1132.09</ele>
        <time>2018-04-23T09:12:14Z</time>
      </trkpt>
      <trkpt lat="44.89713" lon="3.50032">
        <ele>1134.01</ele>
        <time>2018-04-23T09:12:35Z</time>
      </trkpt>
      <trkpt lat="44.89688" lon="3.50023">
        <ele>1136.9</ele>
        <time>2018-04-23T09:12:56Z</time>
      </trkpt>
      <trkpt lat="44.89658" lon="3.50014">
        <ele>1139.78</ele>
        <time>2018-04-23T09:13:22Z</time>
      </trkpt>
      <trkpt lat="44.89638" lon="3.50005">
        <ele>1144.11</ele>
        <time>2018-04-23T09:13:43Z</time>
      </trkpt>
      <trkpt lat="44.89616" lon="3.49999">
        <ele>1146.51</ele>
        <time>2018-04-23T09:14:01Z</time>
      </trkpt>
      <trkpt lat="44.89596" lon="3.49997">
        <ele>1147.95</ele>
        <time>2018-04-23T09:14:18Z</time>
      </trkpt>
      <trkpt lat="44.8958" lon="3.49999">
        <ele>1147.47</ele>
        <time>2018-04-23T09:14:31Z</time>
      </trkpt>
      <trkpt lat="44.89554" lon="3.50005">
        <ele>1149.87</ele>
        <time>2018-04-23T09:14:51Z</time>
      </trkpt>
      <trkpt lat="44.89531" lon="3.50013">
        <ele>1152.28</ele>
        <time>2018-04-23T09:15:10Z</time>
      </trkpt>
      <trkpt lat="44.89509" lon="3.5002">
        <ele>1155.64</ele>
        <time>2018-04-23T09:15:29Z</time>
      </trkpt>
      <trkpt lat="44.89495" lon="3.50023">
        <ele>1156.6</ele>
        <time>2018-04-23T09:15:45Z</time>
      </trkpt>
      <trkpt lat="44.89487" lon="3.50027">
        <ele>1156.12</ele>
        <time>2018-04-23T09:16:00Z</time>
      </trkpt>
      <trkpt lat="44.89472" lon="3.50027">
        <ele>1156.6</ele>
        <time>2018-04-23T09:16:17Z</time>
      </trkpt>
      <trkpt lat="44.89454" lon="3.50021">
        <ele>1158.05</ele>
        <time>2018-04-23T09:16:36Z</time>
      </trkpt>
      <trkpt lat="44.89448" lon="3.5002">
        <ele>1158.53</ele>
        <time>2018-04-23T09:16:49Z</time>
      </trkpt>
      <trkpt lat="44.89447" lon="3.50019">
        <ele>1155.16</ele>
        <time>2018-04-23T09:17:10Z</time>
      </trkpt>
      <trkpt lat="44.89444" lon="3.50017">
        <ele>1159.49</ele>
        <time>2018-04-23T09:17:47Z</time>
      </trkpt>
      <trkpt lat="44.8945" lon="3.50023">
        <ele>1160.45</ele>
        <time>2018-04-23T09:18:23Z</time>
      </trkpt>
      <trkpt lat="44.89449" lon="3.50021">
        <ele>1155.64</ele>
        <time>2018-04-23T09:18:41Z</time>
      </trkpt>
      <trkpt lat="44.89445" lon="3.50019">
        <ele>1154.68</ele>
        <time>2018-04-23T09:19:12Z</time>
      </trkpt>
      <trkpt lat="44.89432" lon="3.50013">
        <ele>1153.72</ele>
        <time>2018-04-23T09:19:30Z</time>
      </trkpt>
      <trkpt lat="44.89418" lon="3.50008">
        <ele>1156.12</ele>
        <time>2018-04-23T09:19:47Z</time>
      </trkpt>
      <trkpt lat="44.89403" lon="3.5">
        <ele>1154.68</ele>
        <time>2018-04-23T09:20:07Z</time>
      </trkpt>
      <trkpt lat="44.89402" lon="3.5">
        <ele>1155.16</ele>
        <time>2018-04-23T09:20:10Z</time>
      </trkpt>
      <trkpt lat="44.89399" lon="3.49999">
        <ele>1156.6</ele>
        <time>2018-04-23T09:20:26Z</time>
      </trkpt>
      <trkpt lat="44.89406" lon="3.50002">
        <ele>1157.56</ele>
        <time>2018-04-23T09:20:44Z</time>
      </trkpt>
      <trkpt lat="44.89405" lon="3.49996">
        <ele>1156.6</ele>
        <time>2018-04-23T09:21:14Z</time>
      </trkpt>
      <trkpt lat="44.89404" lon="3.49998">
        <ele>1151.8</ele>
        <time>2018-04-23T09:21:40Z</time>
      </trkpt>
      <trkpt lat="44.894" lon="3.49995">
        <ele>1147.95</ele>
        <time>2018-04-23T09:21:58Z</time>
      </trkpt>
      <trkpt lat="44.8939" lon="3.49991">
        <ele>1146.51</ele>
        <time>2018-04-23T09:22:09Z</time>
      </trkpt>
      <trkpt lat="44.89373" lon="3.49982">
        <ele>1145.55</ele>
        <time>2018-04-23T09:22:26Z</time>
      </trkpt>
      <trkpt lat="44.89358" lon="3.49976">
        <ele>1145.55</ele>
        <time>2018-04-23T09:22:42Z</time>
      </trkpt>
      <trkpt lat="44.89339" lon="3.49964">
        <ele>1144.11</ele>
        <time>2018-04-23T09:23:02Z</time>
      </trkpt>
      <trkpt lat="44.89336" lon="3.4996">
        <ele>1144.59</ele>
        <time>2018-04-23T09:23:19Z</time>
      </trkpt>
      <trkpt lat="44.89324" lon="3.49953">
        <ele>1144.11</ele>
        <time>2018-04-23T09:23:37Z</time>
      </trkpt>
      <trkpt lat="44.89308" lon="3.49941">
        <ele>1142.18</ele>
        <time>2018-04-23T09:23:56Z</time>
      </trkpt>
      <trkpt lat="44.89295" lon="3.49925">
        <ele>1142.66</ele>
        <time>2018-04-23T09:24:14Z</time>
      </trkpt>
      <trkpt lat="44.89284" lon="3.49903">
        <ele>1142.18</ele>
        <time>2018-04-23T09:24:33Z</time>
      </trkpt>
      <trkpt lat="44.89268" lon="3.49879">
        <ele>1143.63</ele>
        <time>2018-04-23T09:24:57Z</time>
      </trkpt>
      <trkpt lat="44.8925" lon="3.49858">
        <ele>1142.18</ele>
        <time>2018-04-23T09:25:14Z</time>
      </trkpt>
      <trkpt lat="44.8924" lon="3.49838">
        <ele>1140.26</ele>
        <time>2018-04-23T09:25:29Z</time>
      </trkpt>
      <trkpt lat="44.8923" lon="3.49811">
        <ele>1140.26</ele>
        <time>2018-04-23T09:25:47Z</time>
      </trkpt>
      <trkpt lat="44.89217" lon="3.49784">
        <ele>1139.3</ele>
        <time>2018-04-23T09:26:07Z</time>
      </trkpt>
      <trkpt lat="44.89205" lon="3.49761">
        <ele>1139.78</ele>
        <time>2018-04-23T09:26:24Z</time>
      </trkpt>
      <trkpt lat="44.89192" lon="3.49744">
        <ele>1139.78</ele>
        <time>2018-04-23T09:26:39Z</time>
      </trkpt>
      <trkpt lat="44.8918" lon="3.49724">
        <ele>1141.22</ele>
        <time>2018-04-23T09:26:55Z</time>
      </trkpt>
      <trkpt lat="44.89165" lon="3.49698">
        <ele>1141.22</ele>
        <time>2018-04-23T09:27:14Z</time>
      </trkpt>
      <trkpt lat="44.89152" lon="3.49671">
        <ele>1140.74</ele>
        <time>2018-04-23T09:27:33Z</time>
      </trkpt>
      <trkpt lat="44.89141" lon="3.49652">
        <ele>1138.82</ele>
        <time>2018-04-23T09:27:47Z</time>
      </trkpt>
      <trkpt lat="44.89135" lon="3.49643">
        <ele>1137.38</ele>
        <time>2018-04-23T09:27:55Z</time>
      </trkpt>
      <trkpt lat="44.8911" lon="3.49633">
        <ele>1139.3</ele>
        <time>2018-04-23T09:28:15Z</time>
      </trkpt>
      <trkpt lat="44.89087" lon="3.49633">
        <ele>1140.26</ele>
        <time>2018-04-23T09:28:35Z</time>
      </trkpt>
      <trkpt lat="44.89062" lon="3.49623">
        <ele>1139.3</ele>
        <time>2018-04-23T09:28:56Z</time>
      </trkpt>
      <trkpt lat="44.89039" lon="3.49611">
        <ele>1137.86</ele>
        <time>2018-04-23T09:29:13Z</time>
      </trkpt>
      <trkpt lat="44.89034" lon="3.49606">
        <ele>1137.86</ele>
        <time>2018-04-23T09:29:19Z</time>
      </trkpt>
      <trkpt lat="44.89031" lon="3.496">
        <ele>1136.9</ele>
        <time>2018-04-23T09:29:23Z</time>
      </trkpt>
      <trkpt lat="44.89025" lon="3.49593">
        <ele>1135.94</ele>
        <time>2018-04-23T09:29:30Z</time>
      </trkpt>
      <trkpt lat="44.89023" lon="3.49588">
        <ele>1135.45</ele>
        <time>2018-04-23T09:29:33Z</time>
      </trkpt>
      <trkpt lat="44.8901" lon="3.49563">
        <ele>1132.09</ele>
        <time>2018-04-23T09:29:52Z</time>
      </trkpt>
      <trkpt lat="44.89005" lon="3.49538">
        <ele>1132.09</ele>
        <time>2018-04-23T09:30:08Z</time>
      </trkpt>
      <trkpt lat="44.88992" lon="3.4952">
        <ele>1132.09</ele>
        <time>2018-04-23T09:30:22Z</time>
      </trkpt>
      <trkpt lat="44.88975" lon="3.49497">
        <ele>1129.69</ele>
        <time>2018-04-23T09:30:41Z</time>
      </trkpt>
      <trkpt lat="44.88963" lon="3.49486">
        <ele>1130.65</ele>
        <time>2018-04-23T09:30:55Z</time>
      </trkpt>
      <trkpt lat="44.88961" lon="3.49488">
        <ele>1130.17</ele>
        <time>2018-04-23T09:31:13Z</time>
      </trkpt>
      <trkpt lat="44.8896" lon="3.49485">
        <ele>1127.76</ele>
        <time>2018-04-23T09:31:49Z</time>
      </trkpt>
      <trkpt lat="44.88956" lon="3.49489">
        <ele>1130.17</ele>
        <time>2018-04-23T09:31:59Z</time>
      </trkpt>
      <trkpt lat="44.88942" lon="3.49494">
        <ele>1134.49</ele>
        <time>2018-04-23T09:32:13Z</time>
      </trkpt>
      <trkpt lat="44.88929" lon="3.495">
        <ele>1134.97</ele>
        <time>2018-04-23T09:32:27Z</time>
      </trkpt>
      <trkpt lat="44.88927" lon="3.495">
        <ele>1134.97</ele>
        <time>2018-04-23T09:32:29Z</time>
      </trkpt>
      <trkpt lat="44.88911" lon="3.49495">
        <ele>1135.45</ele>
        <time>2018-04-23T09:32:44Z</time>
      </trkpt>
      <trkpt lat="44.88897" lon="3.49485">
        <ele>1134.49</ele>
        <time>2018-04-23T09:33:00Z</time>
      </trkpt>
      <trkpt lat="44.88882" lon="3.49477">
        <ele>1135.45</ele>
        <time>2018-04-23T09:33:19Z</time>
      </trkpt>
      <trkpt lat="44.88879" lon="3.49474">
        <ele>1135.45</ele>
        <time>2018-04-23T09:33:34Z</time>
      </trkpt>
      <trkpt lat="44.88879" lon="3.49474">
        <ele>1135.45</ele>
        <time>2018-04-23T09:34:03Z</time>
      </trkpt>
      <trkpt lat="44.88873" lon="3.49469">
        <ele>1134.49</ele>
        <time>2018-04-23T09:34:19Z</time>
      </trkpt>
      <trkpt lat="44.88856" lon="3.49459">
        <ele>1134.97</ele>
        <time>2018-04-23T09:34:38Z</time>
      </trkpt>
      <trkpt lat="44.88844" lon="3.4945">
        <ele>1137.38</ele>
        <time>2018-04-23T09:34:53Z</time>
      </trkpt>
      <trkpt lat="44.88834" lon="3.49443">
        <ele>1139.3</ele>
        <time>2018-04-23T09:35:04Z</time>
      </trkpt>
      <trkpt lat="44.88821" lon="3.4944">
        <ele>1140.26</ele>
        <time>2018-04-23T09:35:15Z</time>
      </trkpt>
      <trkpt lat="44.88818" lon="3.49448">
        <ele>1142.18</ele>
        <time>2018-04-23T09:35:28Z</time>
      </trkpt>
      <trkpt lat="44.88809" lon="3.49448">
        <ele>1142.66</ele>
        <time>2018-04-23T09:35:40Z</time>
      </trkpt>
      <trkpt lat="44.88808" lon="3.49449">
        <ele>1142.66</ele>
        <time>2018-04-23T09:35:42Z</time>
      </trkpt>
      <trkpt lat="44.88796" lon="3.49469">
        <ele>1142.66</ele>
        <time>2018-04-23T09:35:57Z</time>
      </trkpt>
      <trkpt lat="44.88786" lon="3.4949">
        <ele>1143.63</ele>
        <time>2018-04-23T09:36:13Z</time>
      </trkpt>
      <trkpt lat="44.88774" lon="3.49515">
        <ele>1143.14</ele>
        <time>2018-04-23T09:36:31Z</time>
      </trkpt>
      <trkpt lat="44.8876" lon="3.49534">
        <ele>1144.11</ele>
        <time>2018-04-23T09:36:47Z</time>
      </trkpt>
      <trkpt lat="44.88746" lon="3.49558">
        <ele>1143.63</ele>
        <time>2018-04-23T09:37:05Z</time>
      </trkpt>
      <trkpt lat="44.88735" lon="3.49576">
        <ele>1144.59</ele>
        <time>2018-04-23T09:37:19Z</time>
      </trkpt>
      <trkpt lat="44.88722" lon="3.4959">
        <ele>1147.95</ele>
        <time>2018-04-23T09:37:35Z</time>
      </trkpt>
      <trkpt lat="44.88709" lon="3.49605">
        <ele>1150.35</ele>
        <time>2018-04-23T09:37:50Z</time>
      </trkpt>
      <trkpt lat="44.88695" lon="3.49624">
        <ele>1153.24</ele>
        <time>2018-04-23T09:38:07Z</time>
      </trkpt>
      <trkpt lat="44.8868" lon="3.4964">
        <ele>1154.2</ele>
        <time>2018-04-23T09:38:23Z</time>
      </trkpt>
      <trkpt lat="44.88666" lon="3.49649">
        <ele>1156.12</ele>
        <time>2018-04-23T09:38:39Z</time>
      </trkpt>
      <trkpt lat="44.88661" lon="3.49655">
        <ele>1155.16</ele>
        <time>2018-04-23T09:38:55Z</time>
      </trkpt>
      <trkpt lat="44.88659" lon="3.49657">
        <ele>1155.16</ele>
        <time>2018-04-23T09:38:57Z</time>
      </trkpt>
      <trkpt lat="44.88655" lon="3.49662">
        <ele>1155.16</ele>
        <time>2018-04-23T09:39:03Z</time>
      </trkpt>
      <trkpt lat="44.88639" lon="3.49673">
        <ele>1153.72</ele>
        <time>2018-04-23T09:39:18Z</time>
      </trkpt>
      <trkpt lat="44.88622" lon="3.49679">
        <ele>1151.8</ele>
        <time>2018-04-23T09:39:32Z</time>
      </trkpt>
      <trkpt lat="44.88614" lon="3.49681">
        <ele>1151.8</ele>
        <time>2018-04-23T09:39:41Z</time>
      </trkpt>
      <trkpt lat="44.88599" lon="3.49683">
        <ele>1152.76</ele>
        <time>2018-04-23T09:39:55Z</time>
      </trkpt>
      <trkpt lat="44.88586" lon="3.49684">
        <ele>1152.76</ele>
        <time>2018-04-23T09:40:07Z</time>
      </trkpt>
      <trkpt lat="44.88579" lon="3.49684">
        <ele>1153.24</ele>
        <time>2018-04-23T09:40:12Z</time>
      </trkpt>
      <trkpt lat="44.88566" lon="3.49685">
        <ele>1153.24</ele>
        <time>2018-04-23T09:40:26Z</time>
      </trkpt>
      <trkpt lat="44.88558" lon="3.49683">
        <ele>1152.28</ele>
        <time>2018-04-23T09:40:37Z</time>
      </trkpt>
      <trkpt lat="44.88542" lon="3.4968">
        <ele>1153.24</ele>
        <time>2018-04-23T09:40:51Z</time>
      </trkpt>
      <trkpt lat="44.88526" lon="3.49678">
        <ele>1153.24</ele>
        <time>2018-04-23T09:41:04Z</time>
      </trkpt>
      <trkpt lat="44.88511" lon="3.49676">
        <ele>1154.68</ele>
        <time>2018-04-23T09:41:17Z</time>
      </trkpt>
      <trkpt lat="44.88495" lon="3.49673">
        <ele>1155.64</ele>
        <time>2018-04-23T09:41:30Z</time>
      </trkpt>
      <trkpt lat="44.88478" lon="3.49671">
        <ele>1154.68</ele>
        <time>2018-04-23T09:41:44Z</time>
      </trkpt>
      <trkpt lat="44.8846" lon="3.49671">
        <ele>1154.2</ele>
        <time>2018-04-23T09:41:58Z</time>
      </trkpt>
      <trkpt lat="44.88446" lon="3.4967">
        <ele>1154.68</ele>
        <time>2018-04-23T09:42:10Z</time>
      </trkpt>
      <trkpt lat="44.88429" lon="3.49672">
        <ele>1154.68</ele>
        <time>2018-04-23T09:42:23Z</time>
      </trkpt>
      <trkpt lat="44.88411" lon="3.49678">
        <ele>1154.2</ele>
        <time>2018-04-23T09:42:37Z</time>
      </trkpt>
      <trkpt lat="44.884" lon="3.49689">
        <ele>1152.76</ele>
        <time>2018-04-23T09:42:49Z</time>
      </trkpt>
      <trkpt lat="44.88389" lon="3.49708">
        <ele>1151.8</ele>
        <time>2018-04-23T09:43:02Z</time>
      </trkpt>
      <trkpt lat="44.88379" lon="3.4973">
        <ele>1151.8</ele>
        <time>2018-04-23T09:43:16Z</time>
      </trkpt>
      <trkpt lat="44.88368" lon="3.49752">
        <ele>1151.32</ele>
        <time>2018-04-23T09:43:30Z</time>
      </trkpt>
      <trkpt lat="44.8836" lon="3.49767">
        <ele>1150.84</ele>
        <time>2018-04-23T09:43:42Z</time>
      </trkpt>
      <trkpt lat="44.8835" lon="3.49788">
        <ele>1149.87</ele>
        <time>2018-04-23T09:43:56Z</time>
      </trkpt>
      <trkpt lat="44.88341" lon="3.49811">
        <ele>1149.87</ele>
        <time>2018-04-23T09:44:10Z</time>
      </trkpt>
      <trkpt lat="44.88331" lon="3.4983">
        <ele>1149.87</ele>
        <time>2018-04-23T09:44:24Z</time>
      </trkpt>
      <trkpt lat="44.88319" lon="3.49845">
        <ele>1149.87</ele>
        <time>2018-04-23T09:44:38Z</time>
      </trkpt>
      <trkpt lat="44.88304" lon="3.49861">
        <ele>1149.39</ele>
        <time>2018-04-23T09:44:52Z</time>
      </trkpt>
      <trkpt lat="44.88296" lon="3.49871">
        <ele>1148.91</ele>
        <time>2018-04-23T09:45:01Z</time>
      </trkpt>
      <trkpt lat="44.88278" lon="3.49884">
        <ele>1147.47</ele>
        <time>2018-04-23T09:45:17Z</time>
      </trkpt>
      <trkpt lat="44.88259" lon="3.49893">
        <ele>1146.03</ele>
        <time>2018-04-23T09:45:33Z</time>
      </trkpt>
      <trkpt lat="44.88241" lon="3.49897">
        <ele>1145.07</ele>
        <time>2018-04-23T09:45:48Z</time>
      </trkpt>
      <trkpt lat="44.88234" lon="3.49899">
        <ele>1144.59</ele>
        <time>2018-04-23T09:45:52Z</time>
      </trkpt>
      <trkpt lat="44.88229" lon="3.49899">
        <ele>1143.63</ele>
        <time>2018-04-23T09:46:01Z</time>
      </trkpt>
      <trkpt lat="44.88224" lon="3.49904">
        <ele>1143.63</ele>
        <time>2018-04-23T09:46:06Z</time>
      </trkpt>
      <trkpt lat="44.88221" lon="3.49905">
        <ele>1143.63</ele>
        <time>2018-04-23T09:46:10Z</time>
      </trkpt>
      <trkpt lat="44.88207" lon="3.49902">
        <ele>1144.11</ele>
        <time>2018-04-23T09:46:24Z</time>
      </trkpt>
      <trkpt lat="44.88194" lon="3.49895">
        <ele>1141.7</ele>
        <time>2018-04-23T09:46:38Z</time>
      </trkpt>
      <trkpt lat="44.88191" lon="3.49894">
        <ele>1141.22</ele>
        <time>2018-04-23T09:46:42Z</time>
      </trkpt>
      <trkpt lat="44.88172" lon="3.49898">
        <ele>1138.82</ele>
        <time>2018-04-23T09:46:58Z</time>
      </trkpt>
      <trkpt lat="44.88171" lon="3.49899">
        <ele>1138.82</ele>
        <time>2018-04-23T09:46:59Z</time>
      </trkpt>
      <trkpt lat="44.88152" lon="3.49904">
        <ele>1136.9</ele>
        <time>2018-04-23T09:47:14Z</time>
      </trkpt>
      <trkpt lat="44.88148" lon="3.49909">
        <ele>1137.38</ele>
        <time>2018-04-23T09:47:27Z</time>
      </trkpt>
      <trkpt lat="44.88153" lon="3.49906">
        <ele>1137.86</ele>
        <time>2018-04-23T09:47:53Z</time>
      </trkpt>
      <trkpt lat="44.88155" lon="3.49907">
        <ele>1142.66</ele>
        <time>2018-04-23T09:48:30Z</time>
      </trkpt>
      <trkpt lat="44.88155" lon="3.49909">
        <ele>1134.01</ele>
        <time>2018-04-23T09:49:06Z</time>
      </trkpt>
      <trkpt lat="44.8816" lon="3.49912">
        <ele>1133.53</ele>
        <time>2018-04-23T09:49:45Z</time>
      </trkpt>
      <trkpt lat="44.8816" lon="3.4991">
        <ele>1136.42</ele>
        <time>2018-04-23T09:50:13Z</time>
      </trkpt>
      <trkpt lat="44.8815" lon="3.49908">
        <ele>1136.42</ele>
        <time>2018-04-23T09:50:26Z</time>
      </trkpt>
      <trkpt lat="44.88145" lon="3.49905">
        <ele>1132.09</ele>
        <time>2018-04-23T09:50:41Z</time>
      </trkpt>
      <trkpt lat="44.88141" lon="3.49896">
        <ele>1123.44</ele>
        <time>2018-04-23T09:51:07Z</time>
      </trkpt>
      <trkpt lat="44.88144" lon="3.49904">
        <ele>1119.59</ele>
        <time>2018-04-23T09:51:33Z</time>
      </trkpt>
      <trkpt lat="44.88143" lon="3.49908">
        <ele>1122.96</ele>
        <time>2018-04-23T09:51:39Z</time>
      </trkpt>
      <trkpt lat="44.88136" lon="3.49914">
        <ele>1127.28</ele>
        <time>2018-04-23T09:51:53Z</time>
      </trkpt>
      <trkpt lat="44.88126" lon="3.4992">
        <ele>1129.69</ele>
        <time>2018-04-23T09:52:07Z</time>
      </trkpt>
      <trkpt lat="44.88116" lon="3.49929">
        <ele>1130.17</ele>
        <time>2018-04-23T09:52:21Z</time>
      </trkpt>
      <trkpt lat="44.88101" lon="3.49941">
        <ele>1132.09</ele>
        <time>2018-04-23T09:52:36Z</time>
      </trkpt>
      <trkpt lat="44.88091" lon="3.4994">
        <ele>1130.65</ele>
        <time>2018-04-23T09:52:51Z</time>
      </trkpt>
      <trkpt lat="44.8809" lon="3.49937">
        <ele>1129.69</ele>
        <time>2018-04-23T09:52:54Z</time>
      </trkpt>
      <trkpt lat="44.88078" lon="3.4993">
        <ele>1125.36</ele>
        <time>2018-04-23T09:53:09Z</time>
      </trkpt>
      <trkpt lat="44.88077" lon="3.49932">
        <ele>1124.4</ele>
        <time>2018-04-23T09:53:14Z</time>
      </trkpt>
      <trkpt lat="44.88066" lon="3.49934">
        <ele>1121.52</ele>
        <time>2018-04-23T09:53:26Z</time>
      </trkpt>
      <trkpt lat="44.88058" lon="3.49932">
        <ele>1116.71</ele>
        <time>2018-04-23T09:53:44Z</time>
      </trkpt>
      <trkpt lat="44.88046" lon="3.49935">
        <ele>1117.67</ele>
        <time>2018-04-23T09:53:59Z</time>
      </trkpt>
      <trkpt lat="44.88036" lon="3.49936">
        <ele>1118.63</ele>
        <time>2018-04-23T09:54:14Z</time>
      </trkpt>
      <trkpt lat="44.88029" lon="3.49938">
        <ele>1120.07</ele>
        <time>2018-04-23T09:54:26Z</time>
      </trkpt>
      <trkpt lat="44.88027" lon="3.4994">
        <ele>1120.07</ele>
        <time>2018-04-23T09:54:29Z</time>
      </trkpt>
      <trkpt lat="44.88022" lon="3.49952">
        <ele>1118.15</ele>
        <time>2018-04-23T09:54:44Z</time>
      </trkpt>
      <trkpt lat="44.88021" lon="3.49969">
        <ele>1116.71</ele>
        <time>2018-04-23T09:54:55Z</time>
      </trkpt>
      <trkpt lat="44.88022" lon="3.49981">
        <ele>1113.82</ele>
        <time>2018-04-23T09:55:09Z</time>
      </trkpt>
      <trkpt lat="44.88022" lon="3.49983">
        <ele>1113.82</ele>
        <time>2018-04-23T09:55:10Z</time>
      </trkpt>
      <trkpt lat="44.88021" lon="3.49994">
        <ele>1113.82</ele>
        <time>2018-04-23T09:55:16Z</time>
      </trkpt>
      <trkpt lat="44.88018" lon="3.49999">
        <ele>1113.34</ele>
        <time>2018-04-23T09:55:20Z</time>
      </trkpt>
      <trkpt lat="44.88013" lon="3.50009">
        <ele>1111.42</ele>
        <time>2018-04-23T09:55:30Z</time>
      </trkpt>
      <trkpt lat="44.88007" lon="3.5001">
        <ele>1109.5</ele>
        <time>2018-04-23T09:55:36Z</time>
      </trkpt>
      <trkpt lat="44.88002" lon="3.50007">
        <ele>1107.1</ele>
        <time>2018-04-23T09:55:45Z</time>
      </trkpt>
      <trkpt lat="44.88" lon="3.50004">
        <ele>1106.13</ele>
        <time>2018-04-23T09:55:48Z</time>
      </trkpt>
      <trkpt lat="44.87991" lon="3.49997">
        <ele>1104.21</ele>
        <time>2018-04-23T09:55:58Z</time>
      </trkpt>
      <trkpt lat="44.87976" lon="3.50002">
        <ele>1102.29</ele>
        <time>2018-04-23T09:56:11Z</time>
      </trkpt>
      <trkpt lat="44.87965" lon="3.50011">
        <ele>1098.44</ele>
        <time>2018-04-23T09:56:26Z</time>
      </trkpt>
      <trkpt lat="44.87961" lon="3.50014">
        <ele>1094.6</ele>
        <time>2018-04-23T09:56:48Z</time>
      </trkpt>
      <trkpt lat="44.87964" lon="3.50022">
        <ele>1095.08</ele>
        <time>2018-04-23T09:57:22Z</time>
      </trkpt>
      <trkpt lat="44.87964" lon="3.50019">
        <ele>1096.52</ele>
        <time>2018-04-23T09:57:45Z</time>
      </trkpt>
      <trkpt lat="44.87956" lon="3.50017">
        <ele>1095.08</ele>
        <time>2018-04-23T09:57:52Z</time>
      </trkpt>
      <trkpt lat="44.8794" lon="3.50014">
        <ele>1092.2</ele>
        <time>2018-04-23T09:58:06Z</time>
      </trkpt>
      <trkpt lat="44.87918" lon="3.50017">
        <ele>1087.87</ele>
        <time>2018-04-23T09:58:21Z</time>
      </trkpt>
      <trkpt lat="44.87897" lon="3.50021">
        <ele>1087.39</ele>
        <time>2018-04-23T09:58:36Z</time>
      </trkpt>
      <trkpt lat="44.8788" lon="3.50017">
        <ele>1088.83</ele>
        <time>2018-04-23T09:58:50Z</time>
      </trkpt>
      <trkpt lat="44.87862" lon="3.50006">
        <ele>1089.79</ele>
        <time>2018-04-23T09:59:06Z</time>
      </trkpt>
      <trkpt lat="44.8784" lon="3.50005">
        <ele>1089.79</ele>
        <time>2018-04-23T09:59:24Z</time>
      </trkpt>
      <trkpt lat="44.87826" lon="3.50024">
        <ele>1091.23</ele>
        <time>2018-04-23T09:59:38Z</time>
      </trkpt>
      <trkpt lat="44.87824" lon="3.50031">
        <ele>1090.75</ele>
        <time>2018-04-23T09:59:42Z</time>
      </trkpt>
      <trkpt lat="44.87816" lon="3.50051">
        <ele>1091.23</ele>
        <time>2018-04-23T09:59:55Z</time>
      </trkpt>
      <trkpt lat="44.87808" lon="3.50074">
        <ele>1092.2</ele>
        <time>2018-04-23T10:00:09Z</time>
      </trkpt>
      <trkpt lat="44.87801" lon="3.50097">
        <ele>1092.2</ele>
        <time>2018-04-23T10:00:23Z</time>
      </trkpt>
      <trkpt lat="44.87798" lon="3.50107">
        <ele>1092.2</ele>
        <time>2018-04-23T10:00:29Z</time>
      </trkpt>
      <trkpt lat="44.87789" lon="3.50126">
        <ele>1093.16</ele>
        <time>2018-04-23T10:00:43Z</time>
      </trkpt>
      <trkpt lat="44.87777" lon="3.5013">
        <ele>1096.04</ele>
        <time>2018-04-23T10:00:57Z</time>
      </trkpt>
      <trkpt lat="44.87768" lon="3.50118">
        <ele>1098.44</ele>
        <time>2018-04-23T10:01:12Z</time>
      </trkpt>
      <trkpt lat="44.87751" lon="3.50108">
        <ele>1100.37</ele>
        <time>2018-04-23T10:01:28Z</time>
      </trkpt>
      <trkpt lat="44.87734" lon="3.50111">
        <ele>1105.65</ele>
        <time>2018-04-23T10:01:44Z</time>
      </trkpt>
      <trkpt lat="44.87722" lon="3.50123">
        <ele>1107.1</ele>
        <time>2018-04-23T10:01:57Z</time>
      </trkpt>
      <trkpt lat="44.87709" lon="3.50142">
        <ele>1109.98</ele>
        <time>2018-04-23T10:02:13Z</time>
      </trkpt>
      <trkpt lat="44.87697" lon="3.50153">
        <ele>1112.38</ele>
        <time>2018-04-23T10:02:26Z</time>
      </trkpt>
      <trkpt lat="44.87682" lon="3.50163">
        <ele>1114.79</ele>
        <time>2018-04-23T10:02:39Z</time>
      </trkpt>
      <trkpt lat="44.87668" lon="3.50172">
        <ele>1116.71</ele>
        <time>2018-04-23T10:02:52Z</time>
      </trkpt>
      <trkpt lat="44.87657" lon="3.5018">
        <ele>1118.15</ele>
        <time>2018-04-23T10:03:03Z</time>
      </trkpt>
      <trkpt lat="44.87642" lon="3.50187">
        <ele>1118.15</ele>
        <time>2018-04-23T10:03:16Z</time>
      </trkpt>
      <trkpt lat="44.87627" lon="3.50191">
        <ele>1118.63</ele>
        <time>2018-04-23T10:03:29Z</time>
      </trkpt>
      <trkpt lat="44.87626" lon="3.50191">
        <ele>1118.63</ele>
        <time>2018-04-23T10:03:30Z</time>
      </trkpt>
      <trkpt lat="44.87612" lon="3.50196">
        <ele>1119.59</ele>
        <time>2018-04-23T10:03:42Z</time>
      </trkpt>
      <trkpt lat="44.87601" lon="3.50199">
        <ele>1121.03</ele>
        <time>2018-04-23T10:03:51Z</time>
      </trkpt>
      <trkpt lat="44.87586" lon="3.50211">
        <ele>1121.52</ele>
        <time>2018-04-23T10:04:05Z</time>
      </trkpt>
      <trkpt lat="44.87574" lon="3.50221">
        <ele>1124.4</ele>
        <time>2018-04-23T10:04:18Z</time>
      </trkpt>
      <trkpt lat="44.87561" lon="3.50234">
        <ele>1124.88</ele>
        <time>2018-04-23T10:04:33Z</time>
      </trkpt>
      <trkpt lat="44.87548" lon="3.50247">
        <ele>1126.32</ele>
        <time>2018-04-23T10:04:50Z</time>
      </trkpt>
      <trkpt lat="44.87531" lon="3.50257">
        <ele>1128.24</ele>
        <time>2018-04-23T10:05:06Z</time>
      </trkpt>
      <trkpt lat="44.87519" lon="3.50265">
        <ele>1132.09</ele>
        <time>2018-04-23T10:05:23Z</time>
      </trkpt>
      <trkpt lat="44.87505" lon="3.5027">
        <ele>1134.97</ele>
        <time>2018-04-23T10:05:39Z</time>
      </trkpt>
      <trkpt lat="44.87486" lon="3.5027">
        <ele>1136.9</ele>
        <time>2018-04-23T10:05:58Z</time>
      </trkpt>
      <trkpt lat="44.87468" lon="3.50281">
        <ele>1137.38</ele>
        <time>2018-04-23T10:06:17Z</time>
      </trkpt>
      <trkpt lat="44.87453" lon="3.50289">
        <ele>1139.3</ele>
        <time>2018-04-23T10:06:35Z</time>
      </trkpt>
      <trkpt lat="44.87451" lon="3.50279">
        <ele>1142.66</ele>
        <time>2018-04-23T10:06:49Z</time>
      </trkpt>
      <trkpt lat="44.87453" lon="3.5028">
        <ele>1141.22</ele>
        <time>2018-04-23T10:07:13Z</time>
      </trkpt>
      <trkpt lat="44.87453" lon="3.50284">
        <ele>1138.82</ele>
        <time>2018-04-23T10:07:42Z</time>
      </trkpt>
      <trkpt lat="44.87452" lon="3.50278">
        <ele>1147.95</ele>
        <time>2018-04-23T10:08:07Z</time>
      </trkpt>
      <trkpt lat="44.87451" lon="3.50275">
        <ele>1146.03</ele>
        <time>2018-04-23T10:08:39Z</time>
      </trkpt>
      <trkpt lat="44.87454" lon="3.50279">
        <ele>1149.39</ele>
        <time>2018-04-23T10:09:22Z</time>
      </trkpt>
      <trkpt lat="44.87452" lon="3.50277">
        <ele>1149.39</ele>
        <time>2018-04-23T10:09:56Z</time>
      </trkpt>
      <trkpt lat="44.87451" lon="3.50279">
        <ele>1145.07</ele>
        <time>2018-04-23T10:10:15Z</time>
      </trkpt>
      <trkpt lat="44.87452" lon="3.50279">
        <ele>1146.51</ele>
        <time>2018-04-23T10:10:38Z</time>
      </trkpt>
      <trkpt lat="44.87454" lon="3.50281">
        <ele>1143.63</ele>
        <time>2018-04-23T10:10:59Z</time>
      </trkpt>
      <trkpt lat="44.8745" lon="3.50277">
        <ele>1144.11</ele>
        <time>2018-04-23T10:11:22Z</time>
      </trkpt>
      <trkpt lat="44.87448" lon="3.50276">
        <ele>1143.14</ele>
        <time>2018-04-23T10:11:46Z</time>
      </trkpt>
      <trkpt lat="44.8745" lon="3.50274">
        <ele>1146.03</ele>
        <time>2018-04-23T10:12:12Z</time>
      </trkpt>
      <trkpt lat="44.87454" lon="3.50275">
        <ele>1144.11</ele>
        <time>2018-04-23T10:12:36Z</time>
      </trkpt>
      <trkpt lat="44.87449" lon="3.50276">
        <ele>1141.22</ele>
        <time>2018-04-23T10:12:53Z</time>
      </trkpt>
      <trkpt lat="44.87447" lon="3.50273">
        <ele>1140.74</ele>
        <time>2018-04-23T10:13:18Z</time>
      </trkpt>
      <trkpt lat="44.87454" lon="3.50273">
        <ele>1139.3</ele>
        <time>2018-04-23T10:13:42Z</time>
      </trkpt>
      <trkpt lat="44.87453" lon="3.50276">
        <ele>1145.55</ele>
        <time>2018-04-23T10:13:59Z</time>
      </trkpt>
      <trkpt lat="44.87448" lon="3.50272">
        <ele>1145.07</ele>
        <time>2018-04-23T10:14:16Z</time>
      </trkpt>
      <trkpt lat="44.87448" lon="3.50268">
        <ele>1145.07</ele>
        <time>2018-04-23T10:14:39Z</time>
      </trkpt>
      <trkpt lat="44.87449" lon="3.50274">
        <ele>1146.03</ele>
        <time>2018-04-23T10:15:00Z</time>
      </trkpt>
      <trkpt lat="44.87453" lon="3.50279">
        <ele>1153.24</ele>
        <time>2018-04-23T10:15:26Z</time>
      </trkpt>
      <trkpt lat="44.87456" lon="3.50276">
        <ele>1151.32</ele>
        <time>2018-04-23T10:15:53Z</time>
      </trkpt>
      <trkpt lat="44.87454" lon="3.50275">
        <ele>1152.76</ele>
        <time>2018-04-23T10:16:19Z</time>
      </trkpt>
      <trkpt lat="44.87457" lon="3.50275">
        <ele>1152.76</ele>
        <time>2018-04-23T10:16:45Z</time>
      </trkpt>
      <trkpt lat="44.87455" lon="3.50265">
        <ele>1149.39</ele>
        <time>2018-04-23T10:17:06Z</time>
      </trkpt>
      <trkpt lat="44.87461" lon="3.50255">
        <ele>1144.59</ele>
        <time>2018-04-23T10:17:21Z</time>
      </trkpt>
      <trkpt lat="44.87467" lon="3.50235">
        <ele>1143.14</ele>
        <time>2018-04-23T10:17:38Z</time>
      </trkpt>
      <trkpt lat="44.87467" lon="3.50222">
        <ele>1141.7</ele>
        <time>2018-04-23T10:17:55Z</time>
      </trkpt>
      <trkpt lat="44.87471" lon="3.502">
        <ele>1138.34</ele>
        <time>2018-04-23T10:18:11Z</time>
      </trkpt>
      <trkpt lat="44.87467" lon="3.50177">
        <ele>1135.45</ele>
        <time>2018-04-23T10:18:30Z</time>
      </trkpt>
      <trkpt lat="44.87466" lon="3.50159">
        <ele>1134.01</ele>
        <time>2018-04-23T10:18:48Z</time>
      </trkpt>
      <trkpt lat="44.87465" lon="3.50125">
        <ele>1135.94</ele>
        <time>2018-04-23T10:19:08Z</time>
      </trkpt>
      <trkpt lat="44.87463" lon="3.50099">
        <ele>1137.38</ele>
        <time>2018-04-23T10:19:26Z</time>
      </trkpt>
      <trkpt lat="44.87462" lon="3.50083">
        <ele>1137.86</ele>
        <time>2018-04-23T10:19:36Z</time>
      </trkpt>
      <trkpt lat="44.87458" lon="3.50061">
        <ele>1141.22</ele>
        <time>2018-04-23T10:19:50Z</time>
      </trkpt>
      <trkpt lat="44.87451" lon="3.5003">
        <ele>1140.74</ele>
        <time>2018-04-23T10:20:09Z</time>
      </trkpt>
      <trkpt lat="44.87442" lon="3.50002">
        <ele>1139.78</ele>
        <time>2018-04-23T10:20:27Z</time>
      </trkpt>
      <trkpt lat="44.87431" lon="3.49967">
        <ele>1134.49</ele>
        <time>2018-04-23T10:20:52Z</time>
      </trkpt>
      <trkpt lat="44.87422" lon="3.4994">
        <ele>1131.13</ele>
        <time>2018-04-23T10:21:12Z</time>
      </trkpt>
      <trkpt lat="44.8742" lon="3.49914">
        <ele>1128.73</ele>
        <time>2018-04-23T10:21:31Z</time>
      </trkpt>
      <trkpt lat="44.8742" lon="3.49918">
        <ele>1125.36</ele>
        <time>2018-04-23T10:21:53Z</time>
      </trkpt>
      <trkpt lat="44.8741" lon="3.49914">
        <ele>1126.8</ele>
        <time>2018-04-23T10:22:10Z</time>
      </trkpt>
      <trkpt lat="44.87412" lon="3.49899">
        <ele>1127.28</ele>
        <time>2018-04-23T10:22:28Z</time>
      </trkpt>
      <trkpt lat="44.87404" lon="3.49884">
        <ele>1125.36</ele>
        <time>2018-04-23T10:22:51Z</time>
      </trkpt>
      <trkpt lat="44.87395" lon="3.49857">
        <ele>1126.8</ele>
        <time>2018-04-23T10:23:09Z</time>
      </trkpt>
      <trkpt lat="44.87387" lon="3.49833">
        <ele>1125.36</ele>
        <time>2018-04-23T10:23:27Z</time>
      </trkpt>
      <trkpt lat="44.87378" lon="3.49812">
        <ele>1123.92</ele>
        <time>2018-04-23T10:23:44Z</time>
      </trkpt>
      <trkpt lat="44.87366" lon="3.49784">
        <ele>1123.92</ele>
        <time>2018-04-23T10:24:03Z</time>
      </trkpt>
      <trkpt lat="44.87356" lon="3.49758">
        <ele>1121.52</ele>
        <time>2018-04-23T10:24:23Z</time>
      </trkpt>
      <trkpt lat="44.87342" lon="3.49739">
        <ele>1118.63</ele>
        <time>2018-04-23T10:24:42Z</time>
      </trkpt>
      <trkpt lat="44.87323" lon="3.49712">
        <ele>1116.23</ele>
        <time>2018-04-23T10:25:02Z</time>
      </trkpt>
      <trkpt lat="44.87307" lon="3.49686">
        <ele>1113.82</ele>
        <time>2018-04-23T10:25:22Z</time>
      </trkpt>
      <trkpt lat="44.87292" lon="3.49664">
        <ele>1111.42</ele>
        <time>2018-04-23T10:25:40Z</time>
      </trkpt>
      <trkpt lat="44.87271" lon="3.49649">
        <ele>1109.5</ele>
        <time>2018-04-23T10:26:01Z</time>
      </trkpt>
      <trkpt lat="44.87247" lon="3.49633">
        <ele>1107.1</ele>
        <time>2018-04-23T10:26:19Z</time>
      </trkpt>
      <trkpt lat="44.87224" lon="3.49615">
        <ele>1106.61</ele>
        <time>2018-04-23T10:26:39Z</time>
      </trkpt>
      <trkpt lat="44.87209" lon="3.49591">
        <ele>1104.69</ele>
        <time>2018-04-23T10:26:58Z</time>
      </trkpt>
      <trkpt lat="44.87204" lon="3.49576">
        <ele>1105.17</ele>
        <time>2018-04-23T10:27:07Z</time>
      </trkpt>
      <trkpt lat="44.87192" lon="3.49539">
        <ele>1104.21</ele>
        <time>2018-04-23T10:27:29Z</time>
      </trkpt>
      <trkpt lat="44.87182" lon="3.49526">
        <ele>1103.73</ele>
        <time>2018-04-23T10:27:45Z</time>
      </trkpt>
      <trkpt lat="44.87179" lon="3.49523">
        <ele>1102.77</ele>
        <time>2018-04-23T10:28:05Z</time>
      </trkpt>
      <trkpt lat="44.87171" lon="3.49523">
        <ele>1102.77</ele>
        <time>2018-04-23T10:28:18Z</time>
      </trkpt>
      <trkpt lat="44.87154" lon="3.49528">
        <ele>1103.25</ele>
        <time>2018-04-23T10:28:33Z</time>
      </trkpt>
      <trkpt lat="44.87127" lon="3.49538">
        <ele>1104.21</ele>
        <time>2018-04-23T10:29:02Z</time>
      </trkpt>
      <trkpt lat="44.87124" lon="3.4954">
        <ele>1107.58</ele>
        <time>2018-04-23T10:29:16Z</time>
      </trkpt>
      <trkpt lat="44.87124" lon="3.49542">
        <ele>1109.02</ele>
        <time>2018-04-23T10:29:34Z</time>
      </trkpt>
      <trkpt lat="44.87123" lon="3.49542">
        <ele>1109.98</ele>
        <time>2018-04-23T10:29:45Z</time>
      </trkpt>
      <trkpt lat="44.87126" lon="3.49544">
        <ele>1104.21</ele>
        <time>2018-04-23T10:30:01Z</time>
      </trkpt>
      <trkpt lat="44.87114" lon="3.49549">
        <ele>1103.73</ele>
        <time>2018-04-23T10:30:15Z</time>
      </trkpt>
      <trkpt lat="44.87098" lon="3.49554">
        <ele>1104.21</ele>
        <time>2018-04-23T10:30:31Z</time>
      </trkpt>
      <trkpt lat="44.87079" lon="3.49561">
        <ele>1103.25</ele>
        <time>2018-04-23T10:30:47Z</time>
      </trkpt>
      <trkpt lat="44.87063" lon="3.49572">
        <ele>1103.25</ele>
        <time>2018-04-23T10:31:02Z</time>
      </trkpt>
      <trkpt lat="44.87055" lon="3.49579">
        <ele>1104.21</ele>
        <time>2018-04-23T10:31:17Z</time>
      </trkpt>
      <trkpt lat="44.87046" lon="3.49581">
        <ele>1104.69</ele>
        <time>2018-04-23T10:31:28Z</time>
      </trkpt>
      <trkpt lat="44.87033" lon="3.49581">
        <ele>1108.06</ele>
        <time>2018-04-23T10:31:41Z</time>
      </trkpt>
      <trkpt lat="44.87021" lon="3.49581">
        <ele>1109.98</ele>
        <time>2018-04-23T10:31:53Z</time>
      </trkpt>
      <trkpt lat="44.87006" lon="3.49576">
        <ele>1110.94</ele>
        <time>2018-04-23T10:32:10Z</time>
      </trkpt>
      <trkpt lat="44.87005" lon="3.49575">
        <ele>1110.94</ele>
        <time>2018-04-23T10:32:11Z</time>
      </trkpt>
      <trkpt lat="44.8699" lon="3.49575">
        <ele>1111.9</ele>
        <time>2018-04-23T10:32:26Z</time>
      </trkpt>
      <trkpt lat="44.86987" lon="3.49571">
        <ele>1111.9</ele>
        <time>2018-04-23T10:32:44Z</time>
      </trkpt>
      <trkpt lat="44.86972" lon="3.49573">
        <ele>1111.9</ele>
        <time>2018-04-23T10:32:59Z</time>
      </trkpt>
      <trkpt lat="44.86951" lon="3.49576">
        <ele>1113.82</ele>
        <time>2018-04-23T10:33:18Z</time>
      </trkpt>
      <trkpt lat="44.86946" lon="3.49582">
        <ele>1112.86</ele>
        <time>2018-04-23T10:33:32Z</time>
      </trkpt>
      <trkpt lat="44.86936" lon="3.49587">
        <ele>1112.86</ele>
        <time>2018-04-23T10:33:47Z</time>
      </trkpt>
      <trkpt lat="44.86922" lon="3.49591">
        <ele>1112.86</ele>
        <time>2018-04-23T10:34:04Z</time>
      </trkpt>
      <trkpt lat="44.86906" lon="3.49598">
        <ele>1111.9</ele>
        <time>2018-04-23T10:34:21Z</time>
      </trkpt>
      <trkpt lat="44.86895" lon="3.49601">
        <ele>1112.38</ele>
        <time>2018-04-23T10:34:37Z</time>
      </trkpt>
      <trkpt lat="44.86881" lon="3.49605">
        <ele>1111.9</ele>
        <time>2018-04-23T10:34:51Z</time>
      </trkpt>
      <trkpt lat="44.86861" lon="3.49609">
        <ele>1111.9</ele>
        <time>2018-04-23T10:35:08Z</time>
      </trkpt>
      <trkpt lat="44.86838" lon="3.49618">
        <ele>1109.98</ele>
        <time>2018-04-23T10:35:29Z</time>
      </trkpt>
      <trkpt lat="44.86813" lon="3.49623">
        <ele>1109.5</ele>
        <time>2018-04-23T10:35:48Z</time>
      </trkpt>
      <trkpt lat="44.86792" lon="3.49628">
        <ele>1108.06</ele>
        <time>2018-04-23T10:36:06Z</time>
      </trkpt>
      <trkpt lat="44.86768" lon="3.49611">
        <ele>1109.5</ele>
        <time>2018-04-23T10:36:27Z</time>
      </trkpt>
      <trkpt lat="44.86744" lon="3.49598">
        <ele>1113.82</ele>
        <time>2018-04-23T10:36:47Z</time>
      </trkpt>
      <trkpt lat="44.86724" lon="3.49595">
        <ele>1115.75</ele>
        <time>2018-04-23T10:37:05Z</time>
      </trkpt>
      <trkpt lat="44.867" lon="3.49592">
        <ele>1117.19</ele>
        <time>2018-04-23T10:37:23Z</time>
      </trkpt>
      <trkpt lat="44.86684" lon="3.49588">
        <ele>1118.15</ele>
        <time>2018-04-23T10:37:39Z</time>
      </trkpt>
      <trkpt lat="44.86684" lon="3.4959">
        <ele>1117.67</ele>
        <time>2018-04-23T10:38:16Z</time>
      </trkpt>
      <trkpt lat="44.86685" lon="3.49592">
        <ele>1115.75</ele>
        <time>2018-04-23T10:38:43Z</time>
      </trkpt>
      <trkpt lat="44.86681" lon="3.49592">
        <ele>1115.75</ele>
        <time>2018-04-23T10:38:48Z</time>
      </trkpt>
      <trkpt lat="44.86665" lon="3.49592">
        <ele>1118.15</ele>
        <time>2018-04-23T10:39:04Z</time>
      </trkpt>
      <trkpt lat="44.86651" lon="3.49593">
        <ele>1120.55</ele>
        <time>2018-04-23T10:39:22Z</time>
      </trkpt>
      <trkpt lat="44.8664" lon="3.49592">
        <ele>1122</ele>
        <time>2018-04-23T10:39:32Z</time>
      </trkpt>
      <trkpt lat="44.86635" lon="3.4959">
        <ele>1122.96</ele>
        <time>2018-04-23T10:39:39Z</time>
      </trkpt>
      <trkpt lat="44.86618" lon="3.49589">
        <ele>1123.44</ele>
        <time>2018-04-23T10:39:54Z</time>
      </trkpt>
      <trkpt lat="44.86601" lon="3.4959">
        <ele>1124.4</ele>
        <time>2018-04-23T10:40:09Z</time>
      </trkpt>
      <trkpt lat="44.86595" lon="3.49587">
        <ele>1125.36</ele>
        <time>2018-04-23T10:40:16Z</time>
      </trkpt>
      <trkpt lat="44.86576" lon="3.4958">
        <ele>1126.8</ele>
        <time>2018-04-23T10:40:33Z</time>
      </trkpt>
      <trkpt lat="44.86558" lon="3.49566">
        <ele>1127.28</ele>
        <time>2018-04-23T10:40:52Z</time>
      </trkpt>
      <trkpt lat="44.86542" lon="3.49551">
        <ele>1127.28</ele>
        <time>2018-04-23T10:41:09Z</time>
      </trkpt>
      <trkpt lat="44.86519" lon="3.49533">
        <ele>1129.21</ele>
        <time>2018-04-23T10:41:31Z</time>
      </trkpt>
      <trkpt lat="44.86496" lon="3.49525">
        <ele>1128.24</ele>
        <time>2018-04-23T10:41:52Z</time>
      </trkpt>
      <trkpt lat="44.86493" lon="3.49525">
        <ele>1127.28</ele>
        <time>2018-04-23T10:41:55Z</time>
      </trkpt>
      <trkpt lat="44.86467" lon="3.49518">
        <ele>1128.24</ele>
        <time>2018-04-23T10:42:15Z</time>
      </trkpt>
      <trkpt lat="44.8645" lon="3.4952">
        <ele>1128.73</ele>
        <time>2018-04-23T10:42:29Z</time>
      </trkpt>
      <trkpt lat="44.86425" lon="3.49518">
        <ele>1128.73</ele>
        <time>2018-04-23T10:42:48Z</time>
      </trkpt>
      <trkpt lat="44.86403" lon="3.49523">
        <ele>1127.76</ele>
        <time>2018-04-23T10:43:07Z</time>
      </trkpt>
      <trkpt lat="44.86385" lon="3.49534">
        <ele>1128.24</ele>
        <time>2018-04-23T10:43:23Z</time>
      </trkpt>
      <trkpt lat="44.86373" lon="3.49532">
        <ele>1126.8</ele>
        <time>2018-04-23T10:43:44Z</time>
      </trkpt>
      <trkpt lat="44.86371" lon="3.49524">
        <ele>1126.8</ele>
        <time>2018-04-23T10:44:04Z</time>
      </trkpt>
      <trkpt lat="44.86359" lon="3.49526">
        <ele>1126.32</ele>
        <time>2018-04-23T10:44:27Z</time>
      </trkpt>
      <trkpt lat="44.86346" lon="3.49516">
        <ele>1124.4</ele>
        <time>2018-04-23T10:44:45Z</time>
      </trkpt>
      <trkpt lat="44.86353" lon="3.49512">
        <ele>1121.52</ele>
        <time>2018-04-23T10:45:13Z</time>
      </trkpt>
      <trkpt lat="44.86334" lon="3.49516">
        <ele>1121.52</ele>
        <time>2018-04-23T10:45:34Z</time>
      </trkpt>
      <trkpt lat="44.86309" lon="3.49516">
        <ele>1120.55</ele>
        <time>2018-04-23T10:45:52Z</time>
      </trkpt>
      <trkpt lat="44.86289" lon="3.49521">
        <ele>1119.59</ele>
        <time>2018-04-23T10:46:09Z</time>
      </trkpt>
      <trkpt lat="44.8627" lon="3.49516">
        <ele>1121.52</ele>
        <time>2018-04-23T10:46:25Z</time>
      </trkpt>
      <trkpt lat="44.86263" lon="3.4952">
        <ele>1122</ele>
        <time>2018-04-23T10:46:43Z</time>
      </trkpt>
      <trkpt lat="44.86244" lon="3.49506">
        <ele>1120.07</ele>
        <time>2018-04-23T10:46:58Z</time>
      </trkpt>
      <trkpt lat="44.86228" lon="3.49496">
        <ele>1120.07</ele>
        <time>2018-04-23T10:47:10Z</time>
      </trkpt>
      <trkpt lat="44.86208" lon="3.49478">
        <ele>1119.59</ele>
        <time>2018-04-23T10:47:30Z</time>
      </trkpt>
      <trkpt lat="44.86197" lon="3.49459">
        <ele>1117.67</ele>
        <time>2018-04-23T10:47:49Z</time>
      </trkpt>
      <trkpt lat="44.86184" lon="3.49434">
        <ele>1116.71</ele>
        <time>2018-04-23T10:48:08Z</time>
      </trkpt>
      <trkpt lat="44.86169" lon="3.49409">
        <ele>1117.67</ele>
        <time>2018-04-23T10:48:28Z</time>
      </trkpt>
      <trkpt lat="44.86145" lon="3.49389">
        <ele>1116.23</ele>
        <time>2018-04-23T10:48:51Z</time>
      </trkpt>
      <trkpt lat="44.86121" lon="3.4937">
        <ele>1114.79</ele>
        <time>2018-04-23T10:49:13Z</time>
      </trkpt>
      <trkpt lat="44.861" lon="3.49352">
        <ele>1112.86</ele>
        <time>2018-04-23T10:49:33Z</time>
      </trkpt>
      <trkpt lat="44.86097" lon="3.49347">
        <ele>1112.86</ele>
        <time>2018-04-23T10:49:37Z</time>
      </trkpt>
      <trkpt lat="44.86083" lon="3.49314">
        <ele>1111.9</ele>
        <time>2018-04-23T10:49:59Z</time>
      </trkpt>
      <trkpt lat="44.86067" lon="3.49278">
        <ele>1110.94</ele>
        <time>2018-04-23T10:50:24Z</time>
      </trkpt>
      <trkpt lat="44.86048" lon="3.49254">
        <ele>1112.86</ele>
        <time>2018-04-23T10:50:46Z</time>
      </trkpt>
      <trkpt lat="44.86026" lon="3.49232">
        <ele>1111.9</ele>
        <time>2018-04-23T10:51:08Z</time>
      </trkpt>
      <trkpt lat="44.86006" lon="3.49216">
        <ele>1109.98</ele>
        <time>2018-04-23T10:51:27Z</time>
      </trkpt>
      <trkpt lat="44.85984" lon="3.49192">
        <ele>1109.02</ele>
        <time>2018-04-23T10:51:49Z</time>
      </trkpt>
      <trkpt lat="44.85966" lon="3.49171">
        <ele>1109.98</ele>
        <time>2018-04-23T10:52:09Z</time>
      </trkpt>
      <trkpt lat="44.85944" lon="3.49153">
        <ele>1108.54</ele>
        <time>2018-04-23T10:52:30Z</time>
      </trkpt>
      <trkpt lat="44.85943" lon="3.49151">
        <ele>1108.54</ele>
        <time>2018-04-23T10:52:31Z</time>
      </trkpt>
      <trkpt lat="44.8594" lon="3.49116">
        <ele>1110.46</ele>
        <time>2018-04-23T10:52:49Z</time>
      </trkpt>
      <trkpt lat="44.85952" lon="3.49087">
        <ele>1111.9</ele>
        <time>2018-04-23T10:53:08Z</time>
      </trkpt>
      <trkpt lat="44.85972" lon="3.49067">
        <ele>1113.82</ele>
        <time>2018-04-23T10:53:28Z</time>
      </trkpt>
      <trkpt lat="44.85981" lon="3.49059">
        <ele>1115.75</ele>
        <time>2018-04-23T10:53:36Z</time>
      </trkpt>
      <trkpt lat="44.86008" lon="3.4904">
        <ele>1119.11</ele>
        <time>2018-04-23T10:53:58Z</time>
      </trkpt>
      <trkpt lat="44.8602" lon="3.4905">
        <ele>1118.63</ele>
        <time>2018-04-23T10:54:14Z</time>
      </trkpt>
      <trkpt lat="44.86021" lon="3.4904">
        <ele>1121.03</ele>
        <time>2018-04-23T10:54:37Z</time>
      </trkpt>
      <trkpt lat="44.86011" lon="3.49028">
        <ele>1120.55</ele>
        <time>2018-04-23T10:54:59Z</time>
      </trkpt>
      <trkpt lat="44.86014" lon="3.48992">
        <ele>1118.15</ele>
        <time>2018-04-23T10:55:23Z</time>
      </trkpt>
      <trkpt lat="44.86014" lon="3.48991">
        <ele>1118.15</ele>
        <time>2018-04-23T10:55:24Z</time>
      </trkpt>
      <trkpt lat="44.8602" lon="3.48959">
        <ele>1119.11</ele>
        <time>2018-04-23T10:55:44Z</time>
      </trkpt>
      <trkpt lat="44.86021" lon="3.48944">
        <ele>1119.59</ele>
        <time>2018-04-23T10:56:00Z</time>
      </trkpt>
      <trkpt lat="44.86022" lon="3.48921">
        <ele>1119.11</ele>
        <time>2018-04-23T10:56:18Z</time>
      </trkpt>
      <trkpt lat="44.86025" lon="3.48913">
        <ele>1118.63</ele>
        <time>2018-04-23T10:56:37Z</time>
      </trkpt>
      <trkpt lat="44.86023" lon="3.48922">
        <ele>1116.71</ele>
        <time>2018-04-23T10:57:03Z</time>
      </trkpt>
      <trkpt lat="44.86028" lon="3.48892">
        <ele>1119.59</ele>
        <time>2018-04-23T10:57:26Z</time>
      </trkpt>
      <trkpt lat="44.86029" lon="3.48859">
        <ele>1121.52</ele>
        <time>2018-04-23T10:57:45Z</time>
      </trkpt>
      <trkpt lat="44.8604" lon="3.48822">
        <ele>1126.8</ele>
        <time>2018-04-23T10:58:07Z</time>
      </trkpt>
      <trkpt lat="44.86051" lon="3.48789">
        <ele>1126.32</ele>
        <time>2018-04-23T10:58:29Z</time>
      </trkpt>
      <trkpt lat="44.86067" lon="3.48772">
        <ele>1127.28</ele>
        <time>2018-04-23T10:58:47Z</time>
      </trkpt>
      <trkpt lat="44.86084" lon="3.48764">
        <ele>1128.73</ele>
        <time>2018-04-23T10:59:09Z</time>
      </trkpt>
      <trkpt lat="44.86107" lon="3.48745">
        <ele>1130.65</ele>
        <time>2018-04-23T10:59:31Z</time>
      </trkpt>
      <trkpt lat="44.86114" lon="3.48719">
        <ele>1132.57</ele>
        <time>2018-04-23T10:59:54Z</time>
      </trkpt>
      <trkpt lat="44.86118" lon="3.48706">
        <ele>1133.53</ele>
        <time>2018-04-23T11:00:12Z</time>
      </trkpt>
      <trkpt lat="44.86121" lon="3.48692">
        <ele>1128.73</ele>
        <time>2018-04-23T11:09:40Z</time>
      </trkpt>
      <trkpt lat="44.86117" lon="3.48713">
        <ele>1135.94</ele>
        <time>2018-04-23T11:47:17Z</time>
      </trkpt>
      <trkpt lat="44.86115" lon="3.48712">
        <ele>1130.65</ele>
        <time>2018-04-23T11:47:46Z</time>
      </trkpt>
      <trkpt lat="44.86112" lon="3.4871">
        <ele>1135.94</ele>
        <time>2018-04-23T11:48:10Z</time>
      </trkpt>
      <trkpt lat="44.86115" lon="3.48707">
        <ele>1138.82</ele>
        <time>2018-04-23T11:48:34Z</time>
      </trkpt>
      <trkpt lat="44.86114" lon="3.48711">
        <ele>1134.01</ele>
        <time>2018-04-23T11:50:48Z</time>
      </trkpt>
      <trkpt lat="44.86117" lon="3.48705">
        <ele>1130.17</ele>
        <time>2018-04-23T11:51:07Z</time>
      </trkpt>
      <trkpt lat="44.86114" lon="3.48708">
        <ele>1132.09</ele>
        <time>2018-04-23T11:51:26Z</time>
      </trkpt>
      <trkpt lat="44.86112" lon="3.4871">
        <ele>1135.94</ele>
        <time>2018-04-23T11:51:39Z</time>
      </trkpt>
      <trkpt lat="44.86116" lon="3.48714">
        <ele>1136.9</ele>
        <time>2018-04-23T11:52:10Z</time>
      </trkpt>
      <trkpt lat="44.86115" lon="3.48718">
        <ele>1136.9</ele>
        <time>2018-04-23T11:52:13Z</time>
      </trkpt>
      <trkpt lat="44.86116" lon="3.48731">
        <ele>1136.42</ele>
        <time>2018-04-23T11:52:20Z</time>
      </trkpt>
      <trkpt lat="44.86109" lon="3.48747">
        <ele>1135.94</ele>
        <time>2018-04-23T11:52:35Z</time>
      </trkpt>
      <trkpt lat="44.86102" lon="3.48751">
        <ele>1135.94</ele>
        <time>2018-04-23T11:52:47Z</time>
      </trkpt>
      <trkpt lat="44.86086" lon="3.48763">
        <ele>1134.01</ele>
        <time>2018-04-23T11:53:07Z</time>
      </trkpt>
      <trkpt lat="44.86075" lon="3.48776">
        <ele>1129.69</ele>
        <time>2018-04-23T11:53:25Z</time>
      </trkpt>
      <trkpt lat="44.86059" lon="3.48785">
        <ele>1129.69</ele>
        <time>2018-04-23T11:53:41Z</time>
      </trkpt>
      <trkpt lat="44.86052" lon="3.48789">
        <ele>1128.73</ele>
        <time>2018-04-23T11:54:04Z</time>
      </trkpt>
      <trkpt lat="44.86048" lon="3.48807">
        <ele>1131.61</ele>
        <time>2018-04-23T11:54:22Z</time>
      </trkpt>
      <trkpt lat="44.86047" lon="3.48809">
        <ele>1131.61</ele>
        <time>2018-04-23T11:54:24Z</time>
      </trkpt>
      <trkpt lat="44.86036" lon="3.48835">
        <ele>1131.13</ele>
        <time>2018-04-23T11:54:42Z</time>
      </trkpt>
      <trkpt lat="44.86033" lon="3.48858">
        <ele>1130.65</ele>
        <time>2018-04-23T11:54:58Z</time>
      </trkpt>
      <trkpt lat="44.86033" lon="3.48871">
        <ele>1130.17</ele>
        <time>2018-04-23T11:55:15Z</time>
      </trkpt>
      <trkpt lat="44.86029" lon="3.48893">
        <ele>1129.69</ele>
        <time>2018-04-23T11:55:31Z</time>
      </trkpt>
      <trkpt lat="44.86026" lon="3.48907">
        <ele>1129.69</ele>
        <time>2018-04-23T11:55:41Z</time>
      </trkpt>
      <trkpt lat="44.86026" lon="3.48916">
        <ele>1129.69</ele>
        <time>2018-04-23T11:55:45Z</time>
      </trkpt>
      <trkpt lat="44.86024" lon="3.48943">
        <ele>1130.17</ele>
        <time>2018-04-23T11:56:03Z</time>
      </trkpt>
      <trkpt lat="44.86019" lon="3.4897">
        <ele>1128.24</ele>
        <time>2018-04-23T11:56:20Z</time>
      </trkpt>
      <trkpt lat="44.86014" lon="3.49">
        <ele>1122.48</ele>
        <time>2018-04-23T11:56:39Z</time>
      </trkpt>
      <trkpt lat="44.8601" lon="3.49025">
        <ele>1122</ele>
        <time>2018-04-23T11:56:54Z</time>
      </trkpt>
      <trkpt lat="44.86005" lon="3.4904">
        <ele>1121.03</ele>
        <time>2018-04-23T11:57:08Z</time>
      </trkpt>
      <trkpt lat="44.85985" lon="3.49055">
        <ele>1119.59</ele>
        <time>2018-04-23T11:57:27Z</time>
      </trkpt>
      <trkpt lat="44.85977" lon="3.49044">
        <ele>1120.07</ele>
        <time>2018-04-23T11:57:41Z</time>
      </trkpt>
      <trkpt lat="44.85975" lon="3.49037">
        <ele>1121.03</ele>
        <time>2018-04-23T11:57:58Z</time>
      </trkpt>
      <trkpt lat="44.85978" lon="3.4903">
        <ele>1121.03</ele>
        <time>2018-04-23T11:58:25Z</time>
      </trkpt>
      <trkpt lat="44.85974" lon="3.49053">
        <ele>1119.59</ele>
        <time>2018-04-23T11:58:41Z</time>
      </trkpt>
      <trkpt lat="44.85972" lon="3.49063">
        <ele>1120.07</ele>
        <time>2018-04-23T11:58:49Z</time>
      </trkpt>
      <trkpt lat="44.85956" lon="3.49083">
        <ele>1119.11</ele>
        <time>2018-04-23T11:59:07Z</time>
      </trkpt>
      <trkpt lat="44.85944" lon="3.49099">
        <ele>1118.15</ele>
        <time>2018-04-23T11:59:22Z</time>
      </trkpt>
      <trkpt lat="44.85928" lon="3.49109">
        <ele>1117.19</ele>
        <time>2018-04-23T11:59:40Z</time>
      </trkpt>
      <trkpt lat="44.85911" lon="3.49113">
        <ele>1116.23</ele>
        <time>2018-04-23T11:59:58Z</time>
      </trkpt>
      <trkpt lat="44.85901" lon="3.49112">
        <ele>1114.79</ele>
        <time>2018-04-23T12:00:17Z</time>
      </trkpt>
      <trkpt lat="44.85884" lon="3.49116">
        <ele>1114.79</ele>
        <time>2018-04-23T12:00:37Z</time>
      </trkpt>
      <trkpt lat="44.85877" lon="3.49119">
        <ele>1112.86</ele>
        <time>2018-04-23T12:00:48Z</time>
      </trkpt>
      <trkpt lat="44.85864" lon="3.4912">
        <ele>1112.38</ele>
        <time>2018-04-23T12:01:06Z</time>
      </trkpt>
      <trkpt lat="44.85847" lon="3.49127">
        <ele>1112.86</ele>
        <time>2018-04-23T12:01:24Z</time>
      </trkpt>
      <trkpt lat="44.85825" lon="3.49131">
        <ele>1113.34</ele>
        <time>2018-04-23T12:01:45Z</time>
      </trkpt>
      <trkpt lat="44.85803" lon="3.49135">
        <ele>1114.31</ele>
        <time>2018-04-23T12:02:04Z</time>
      </trkpt>
      <trkpt lat="44.85781" lon="3.49141">
        <ele>1114.31</ele>
        <time>2018-04-23T12:02:23Z</time>
      </trkpt>
      <trkpt lat="44.85763" lon="3.49147">
        <ele>1114.31</ele>
        <time>2018-04-23T12:02:41Z</time>
      </trkpt>
      <trkpt lat="44.85743" lon="3.49156">
        <ele>1117.19</ele>
        <time>2018-04-23T12:02:59Z</time>
      </trkpt>
      <trkpt lat="44.85715" lon="3.49161">
        <ele>1121.52</ele>
        <time>2018-04-23T12:03:22Z</time>
      </trkpt>
      <trkpt lat="44.85694" lon="3.49172">
        <ele>1123.92</ele>
        <time>2018-04-23T12:03:42Z</time>
      </trkpt>
      <trkpt lat="44.8567" lon="3.49181">
        <ele>1126.8</ele>
        <time>2018-04-23T12:04:02Z</time>
      </trkpt>
      <trkpt lat="44.85648" lon="3.49192">
        <ele>1127.28</ele>
        <time>2018-04-23T12:04:23Z</time>
      </trkpt>
      <trkpt lat="44.85624" lon="3.49202">
        <ele>1128.24</ele>
        <time>2018-04-23T12:04:46Z</time>
      </trkpt>
      <trkpt lat="44.85599" lon="3.49212">
        <ele>1130.17</ele>
        <time>2018-04-23T12:05:08Z</time>
      </trkpt>
      <trkpt lat="44.85578" lon="3.49222">
        <ele>1130.65</ele>
        <time>2018-04-23T12:05:27Z</time>
      </trkpt>
      <trkpt lat="44.85552" lon="3.49231">
        <ele>1135.94</ele>
        <time>2018-04-23T12:05:47Z</time>
      </trkpt>
      <trkpt lat="44.85529" lon="3.49242">
        <ele>1137.38</ele>
        <time>2018-04-23T12:06:08Z</time>
      </trkpt>
      <trkpt lat="44.85505" lon="3.49253">
        <ele>1139.78</ele>
        <time>2018-04-23T12:06:27Z</time>
      </trkpt>
      <trkpt lat="44.85481" lon="3.49264">
        <ele>1139.3</ele>
        <time>2018-04-23T12:06:50Z</time>
      </trkpt>
      <trkpt lat="44.85463" lon="3.49278">
        <ele>1141.22</ele>
        <time>2018-04-23T12:07:08Z</time>
      </trkpt>
      <trkpt lat="44.85443" lon="3.49311">
        <ele>1147.47</ele>
        <time>2018-04-23T12:07:31Z</time>
      </trkpt>
      <trkpt lat="44.85441" lon="3.49342">
        <ele>1151.32</ele>
        <time>2018-04-23T12:07:51Z</time>
      </trkpt>
      <trkpt lat="44.85443" lon="3.49367">
        <ele>1149.87</ele>
        <time>2018-04-23T12:08:09Z</time>
      </trkpt>
      <trkpt lat="44.85446" lon="3.49402">
        <ele>1154.2</ele>
        <time>2018-04-23T12:08:30Z</time>
      </trkpt>
      <trkpt lat="44.85444" lon="3.49417">
        <ele>1156.12</ele>
        <time>2018-04-23T12:08:47Z</time>
      </trkpt>
      <trkpt lat="44.85444" lon="3.49418">
        <ele>1157.56</ele>
        <time>2018-04-23T12:09:11Z</time>
      </trkpt>
      <trkpt lat="44.85445" lon="3.49418">
        <ele>1160.45</ele>
        <time>2018-04-23T12:09:45Z</time>
      </trkpt>
      <trkpt lat="44.85445" lon="3.49422">
        <ele>1161.89</ele>
        <time>2018-04-23T12:10:07Z</time>
      </trkpt>
      <trkpt lat="44.85445" lon="3.49424">
        <ele>1157.56</ele>
        <time>2018-04-23T12:10:27Z</time>
      </trkpt>
      <trkpt lat="44.85442" lon="3.49432">
        <ele>1158.05</ele>
        <time>2018-04-23T12:10:55Z</time>
      </trkpt>
      <trkpt lat="44.85438" lon="3.49442">
        <ele>1158.05</ele>
        <time>2018-04-23T12:11:14Z</time>
      </trkpt>
      <trkpt lat="44.8544" lon="3.49439">
        <ele>1156.12</ele>
        <time>2018-04-23T12:11:36Z</time>
      </trkpt>
      <trkpt lat="44.85439" lon="3.49437">
        <ele>1155.64</ele>
        <time>2018-04-23T12:12:01Z</time>
      </trkpt>
      <trkpt lat="44.85435" lon="3.4945">
        <ele>1156.6</ele>
        <time>2018-04-23T12:12:14Z</time>
      </trkpt>
      <trkpt lat="44.85424" lon="3.49483">
        <ele>1159.97</ele>
        <time>2018-04-23T12:12:36Z</time>
      </trkpt>
      <trkpt lat="44.85416" lon="3.49513">
        <ele>1162.85</ele>
        <time>2018-04-23T12:12:57Z</time>
      </trkpt>
      <trkpt lat="44.85411" lon="3.49546">
        <ele>1165.26</ele>
        <time>2018-04-23T12:13:18Z</time>
      </trkpt>
      <trkpt lat="44.85402" lon="3.49572">
        <ele>1165.74</ele>
        <time>2018-04-23T12:13:38Z</time>
      </trkpt>
      <trkpt lat="44.85383" lon="3.49581">
        <ele>1165.26</ele>
        <time>2018-04-23T12:13:56Z</time>
      </trkpt>
      <trkpt lat="44.85364" lon="3.49584">
        <ele>1165.26</ele>
        <time>2018-04-23T12:14:15Z</time>
      </trkpt>
      <trkpt lat="44.85346" lon="3.49577">
        <ele>1164.77</ele>
        <time>2018-04-23T12:14:34Z</time>
      </trkpt>
      <trkpt lat="44.8533" lon="3.49571">
        <ele>1164.77</ele>
        <time>2018-04-23T12:14:52Z</time>
      </trkpt>
      <trkpt lat="44.85315" lon="3.49575">
        <ele>1162.85</ele>
        <time>2018-04-23T12:15:07Z</time>
      </trkpt>
      <trkpt lat="44.85297" lon="3.49577">
        <ele>1160.93</ele>
        <time>2018-04-23T12:15:25Z</time>
      </trkpt>
      <trkpt lat="44.85276" lon="3.49568">
        <ele>1164.77</ele>
        <time>2018-04-23T12:15:43Z</time>
      </trkpt>
      <trkpt lat="44.85252" lon="3.49565">
        <ele>1166.7</ele>
        <time>2018-04-23T12:16:04Z</time>
      </trkpt>
      <trkpt lat="44.85229" lon="3.49565">
        <ele>1168.62</ele>
        <time>2018-04-23T12:16:24Z</time>
      </trkpt>
      <trkpt lat="44.85206" lon="3.4957">
        <ele>1169.1</ele>
        <time>2018-04-23T12:16:43Z</time>
      </trkpt>
      <trkpt lat="44.85182" lon="3.49578">
        <ele>1170.54</ele>
        <time>2018-04-23T12:17:03Z</time>
      </trkpt>
      <trkpt lat="44.85165" lon="3.49585">
        <ele>1171.02</ele>
        <time>2018-04-23T12:17:19Z</time>
      </trkpt>
      <trkpt lat="44.85146" lon="3.49594">
        <ele>1168.14</ele>
        <time>2018-04-23T12:17:40Z</time>
      </trkpt>
      <trkpt lat="44.85128" lon="3.49599">
        <ele>1166.7</ele>
        <time>2018-04-23T12:17:56Z</time>
      </trkpt>
      <trkpt lat="44.85109" lon="3.49608">
        <ele>1166.22</ele>
        <time>2018-04-23T12:18:13Z</time>
      </trkpt>
      <trkpt lat="44.85094" lon="3.49627">
        <ele>1166.7</ele>
        <time>2018-04-23T12:18:32Z</time>
      </trkpt>
      <trkpt lat="44.8508" lon="3.49649">
        <ele>1171.5</ele>
        <time>2018-04-23T12:18:46Z</time>
      </trkpt>
      <trkpt lat="44.85056" lon="3.49668">
        <ele>1177.75</ele>
        <time>2018-04-23T12:19:06Z</time>
      </trkpt>
      <trkpt lat="44.85037" lon="3.4967">
        <ele>1178.71</ele>
        <time>2018-04-23T12:19:25Z</time>
      </trkpt>
      <trkpt lat="44.85017" lon="3.49662">
        <ele>1179.19</ele>
        <time>2018-04-23T12:19:44Z</time>
      </trkpt>
      <trkpt lat="44.85001" lon="3.4966">
        <ele>1179.67</ele>
        <time>2018-04-23T12:19:59Z</time>
      </trkpt>
      <trkpt lat="44.84979" lon="3.49675">
        <ele>1182.08</ele>
        <time>2018-04-23T12:20:20Z</time>
      </trkpt>
      <trkpt lat="44.84961" lon="3.49694">
        <ele>1185.92</ele>
        <time>2018-04-23T12:20:38Z</time>
      </trkpt>
      <trkpt lat="44.84944" lon="3.49712">
        <ele>1189.77</ele>
        <time>2018-04-23T12:20:57Z</time>
      </trkpt>
      <trkpt lat="44.84927" lon="3.49731">
        <ele>1193.13</ele>
        <time>2018-04-23T12:21:18Z</time>
      </trkpt>
      <trkpt lat="44.8491" lon="3.49742">
        <ele>1194.58</ele>
        <time>2018-04-23T12:21:34Z</time>
      </trkpt>
      <trkpt lat="44.84891" lon="3.49733">
        <ele>1194.58</ele>
        <time>2018-04-23T12:21:53Z</time>
      </trkpt>
      <trkpt lat="44.84871" lon="3.49733">
        <ele>1193.61</ele>
        <time>2018-04-23T12:22:14Z</time>
      </trkpt>
      <trkpt lat="44.84852" lon="3.4972">
        <ele>1193.13</ele>
        <time>2018-04-23T12:22:33Z</time>
      </trkpt>
      <trkpt lat="44.84831" lon="3.49701">
        <ele>1193.13</ele>
        <time>2018-04-23T12:22:53Z</time>
      </trkpt>
      <trkpt lat="44.84829" lon="3.49698">
        <ele>1193.13</ele>
        <time>2018-04-23T12:22:56Z</time>
      </trkpt>
      <trkpt lat="44.84824" lon="3.49689">
        <ele>1193.61</ele>
        <time>2018-04-23T12:23:01Z</time>
      </trkpt>
      <trkpt lat="44.84805" lon="3.49664">
        <ele>1195.06</ele>
        <time>2018-04-23T12:23:22Z</time>
      </trkpt>
      <trkpt lat="44.84786" lon="3.49669">
        <ele>1194.09</ele>
        <time>2018-04-23T12:23:38Z</time>
      </trkpt>
      <trkpt lat="44.84762" lon="3.49689">
        <ele>1196.5</ele>
        <time>2018-04-23T12:23:57Z</time>
      </trkpt>
      <trkpt lat="44.84746" lon="3.49707">
        <ele>1196.02</ele>
        <time>2018-04-23T12:24:14Z</time>
      </trkpt>
      <trkpt lat="44.84732" lon="3.4973">
        <ele>1195.54</ele>
        <time>2018-04-23T12:24:32Z</time>
      </trkpt>
      <trkpt lat="44.84711" lon="3.49754">
        <ele>1194.09</ele>
        <time>2018-04-23T12:24:52Z</time>
      </trkpt>
      <trkpt lat="44.84685" lon="3.49777">
        <ele>1193.61</ele>
        <time>2018-04-23T12:25:15Z</time>
      </trkpt>
      <trkpt lat="44.8466" lon="3.49788">
        <ele>1193.61</ele>
        <time>2018-04-23T12:25:31Z</time>
      </trkpt>
      <trkpt lat="44.84642" lon="3.49795">
        <ele>1190.73</ele>
        <time>2018-04-23T12:25:48Z</time>
      </trkpt>
      <trkpt lat="44.84617" lon="3.49802">
        <ele>1190.73</ele>
        <time>2018-04-23T12:26:08Z</time>
      </trkpt>
      <trkpt lat="44.84605" lon="3.49807">
        <ele>1194.58</ele>
        <time>2018-04-23T12:26:25Z</time>
      </trkpt>
      <trkpt lat="44.84603" lon="3.49808">
        <ele>1196.5</ele>
        <time>2018-04-23T12:26:41Z</time>
      </trkpt>
      <trkpt lat="44.84601" lon="3.49807">
        <ele>1197.94</ele>
        <time>2018-04-23T12:27:00Z</time>
      </trkpt>
      <trkpt lat="44.84582" lon="3.4982">
        <ele>1199.38</ele>
        <time>2018-04-23T12:27:17Z</time>
      </trkpt>
      <trkpt lat="44.84569" lon="3.49825">
        <ele>1199.38</ele>
        <time>2018-04-23T12:27:29Z</time>
      </trkpt>
      <trkpt lat="44.84549" lon="3.49831">
        <ele>1199.86</ele>
        <time>2018-04-23T12:27:47Z</time>
      </trkpt>
      <trkpt lat="44.84526" lon="3.49839">
        <ele>1199.38</ele>
        <time>2018-04-23T12:28:08Z</time>
      </trkpt>
      <trkpt lat="44.84511" lon="3.49847">
        <ele>1198.42</ele>
        <time>2018-04-23T12:28:22Z</time>
      </trkpt>
      <trkpt lat="44.84495" lon="3.49855">
        <ele>1198.42</ele>
        <time>2018-04-23T12:28:38Z</time>
      </trkpt>
      <trkpt lat="44.8449" lon="3.49855">
        <ele>1198.9</ele>
        <time>2018-04-23T12:28:42Z</time>
      </trkpt>
      <trkpt lat="44.84485" lon="3.4986">
        <ele>1199.86</ele>
        <time>2018-04-23T12:28:48Z</time>
      </trkpt>
      <trkpt lat="44.8448" lon="3.49866">
        <ele>1201.3</ele>
        <time>2018-04-23T12:29:07Z</time>
      </trkpt>
      <trkpt lat="44.84475" lon="3.49858">
        <ele>1204.67</ele>
        <time>2018-04-23T12:29:31Z</time>
      </trkpt>
      <trkpt lat="44.84468" lon="3.49861">
        <ele>1211.88</ele>
        <time>2018-04-23T12:29:59Z</time>
      </trkpt>
      <trkpt lat="44.84468" lon="3.49866">
        <ele>1209</ele>
        <time>2018-04-23T12:30:25Z</time>
      </trkpt>
      <trkpt lat="44.84466" lon="3.49858">
        <ele>1208.51</ele>
        <time>2018-04-23T12:30:47Z</time>
      </trkpt>
      <trkpt lat="44.84465" lon="3.49855">
        <ele>1211.4</ele>
        <time>2018-04-23T12:31:08Z</time>
      </trkpt>
      <trkpt lat="44.84465" lon="3.49864">
        <ele>1210.44</ele>
        <time>2018-04-23T12:31:42Z</time>
      </trkpt>
      <trkpt lat="44.84466" lon="3.49861">
        <ele>1210.92</ele>
        <time>2018-04-23T12:32:10Z</time>
      </trkpt>
      <trkpt lat="44.84468" lon="3.49862">
        <ele>1214.76</ele>
        <time>2018-04-23T12:32:44Z</time>
      </trkpt>
      <trkpt lat="44.84468" lon="3.4986">
        <ele>1212.84</ele>
        <time>2018-04-23T12:33:19Z</time>
      </trkpt>
      <trkpt lat="44.84454" lon="3.49851">
        <ele>1212.36</ele>
        <time>2018-04-23T12:33:42Z</time>
      </trkpt>
      <trkpt lat="44.84437" lon="3.49843">
        <ele>1214.28</ele>
        <time>2018-04-23T12:34:00Z</time>
      </trkpt>
      <trkpt lat="44.84431" lon="3.49839">
        <ele>1215.24</ele>
        <time>2018-04-23T12:34:05Z</time>
      </trkpt>
      <trkpt lat="44.84425" lon="3.49838">
        <ele>1215.72</ele>
        <time>2018-04-23T12:34:09Z</time>
      </trkpt>
      <trkpt lat="44.84412" lon="3.49834">
        <ele>1215.72</ele>
        <time>2018-04-23T12:34:21Z</time>
      </trkpt>
      <trkpt lat="44.84393" lon="3.49833">
        <ele>1216.21</ele>
        <time>2018-04-23T12:34:38Z</time>
      </trkpt>
      <trkpt lat="44.84368" lon="3.49821">
        <ele>1216.21</ele>
        <time>2018-04-23T12:34:58Z</time>
      </trkpt>
      <trkpt lat="44.84343" lon="3.49811">
        <ele>1214.28</ele>
        <time>2018-04-23T12:35:17Z</time>
      </trkpt>
      <trkpt lat="44.84323" lon="3.49812">
        <ele>1212.84</ele>
        <time>2018-04-23T12:35:33Z</time>
      </trkpt>
      <trkpt lat="44.84297" lon="3.49816">
        <ele>1211.4</ele>
        <time>2018-04-23T12:35:54Z</time>
      </trkpt>
      <trkpt lat="44.84278" lon="3.49794">
        <ele>1215.24</ele>
        <time>2018-04-23T12:36:13Z</time>
      </trkpt>
      <trkpt lat="44.84274" lon="3.49763">
        <ele>1218.13</ele>
        <time>2018-04-23T12:36:35Z</time>
      </trkpt>
      <trkpt lat="44.84264" lon="3.49729">
        <ele>1223.42</ele>
        <time>2018-04-23T12:36:53Z</time>
      </trkpt>
      <trkpt lat="44.84249" lon="3.49697">
        <ele>1222.93</ele>
        <time>2018-04-23T12:37:13Z</time>
      </trkpt>
      <trkpt lat="44.84236" lon="3.49671">
        <ele>1223.42</ele>
        <time>2018-04-23T12:37:33Z</time>
      </trkpt>
      <trkpt lat="44.84228" lon="3.49641">
        <ele>1225.34</ele>
        <time>2018-04-23T12:37:49Z</time>
      </trkpt>
      <trkpt lat="44.84212" lon="3.49613">
        <ele>1228.22</ele>
        <time>2018-04-23T12:38:08Z</time>
      </trkpt>
      <trkpt lat="44.84194" lon="3.49592">
        <ele>1230.14</ele>
        <time>2018-04-23T12:38:27Z</time>
      </trkpt>
      <trkpt lat="44.84187" lon="3.49574">
        <ele>1231.59</ele>
        <time>2018-04-23T12:38:46Z</time>
      </trkpt>
      <trkpt lat="44.8417" lon="3.49542">
        <ele>1233.03</ele>
        <time>2018-04-23T12:39:05Z</time>
      </trkpt>
      <trkpt lat="44.84148" lon="3.49517">
        <ele>1233.51</ele>
        <time>2018-04-23T12:39:24Z</time>
      </trkpt>
      <trkpt lat="44.84123" lon="3.49516">
        <ele>1232.55</ele>
        <time>2018-04-23T12:39:44Z</time>
      </trkpt>
      <trkpt lat="44.84105" lon="3.49514">
        <ele>1234.95</ele>
        <time>2018-04-23T12:40:00Z</time>
      </trkpt>
      <trkpt lat="44.84091" lon="3.49518">
        <ele>1237.35</ele>
        <time>2018-04-23T12:40:16Z</time>
      </trkpt>
      <trkpt lat="44.84072" lon="3.49519">
        <ele>1240.72</ele>
        <time>2018-04-23T12:40:36Z</time>
      </trkpt>
      <trkpt lat="44.84056" lon="3.49528">
        <ele>1243.12</ele>
        <time>2018-04-23T12:40:55Z</time>
      </trkpt>
      <trkpt lat="44.84039" lon="3.49535">
        <ele>1245.53</ele>
        <time>2018-04-23T12:41:16Z</time>
      </trkpt>
      <trkpt lat="44.8402" lon="3.49549">
        <ele>1250.33</ele>
        <time>2018-04-23T12:41:33Z</time>
      </trkpt>
      <trkpt lat="44.84002" lon="3.49564">
        <ele>1250.81</ele>
        <time>2018-04-23T12:41:55Z</time>
      </trkpt>
      <trkpt lat="44.83986" lon="3.49568">
        <ele>1253.7</ele>
        <time>2018-04-23T12:42:14Z</time>
      </trkpt>
      <trkpt lat="44.83966" lon="3.49564">
        <ele>1255.14</ele>
        <time>2018-04-23T12:42:32Z</time>
      </trkpt>
      <trkpt lat="44.83944" lon="3.49554">
        <ele>1258.5</ele>
        <time>2018-04-23T12:42:48Z</time>
      </trkpt>
      <trkpt lat="44.83923" lon="3.4955">
        <ele>1262.83</ele>
        <time>2018-04-23T12:43:06Z</time>
      </trkpt>
      <trkpt lat="44.83913" lon="3.49549">
        <ele>1265.23</ele>
        <time>2018-04-23T12:43:28Z</time>
      </trkpt>
      <trkpt lat="44.83902" lon="3.49546">
        <ele>1264.27</ele>
        <time>2018-04-23T12:43:44Z</time>
      </trkpt>
      <trkpt lat="44.83888" lon="3.4955">
        <ele>1263.79</ele>
        <time>2018-04-23T12:44:02Z</time>
      </trkpt>
      <trkpt lat="44.83871" lon="3.4956">
        <ele>1265.23</ele>
        <time>2018-04-23T12:44:20Z</time>
      </trkpt>
      <trkpt lat="44.83851" lon="3.49559">
        <ele>1269.08</ele>
        <time>2018-04-23T12:44:38Z</time>
      </trkpt>
      <trkpt lat="44.83833" lon="3.49566">
        <ele>1270.52</ele>
        <time>2018-04-23T12:44:59Z</time>
      </trkpt>
      <trkpt lat="44.83808" lon="3.49569">
        <ele>1272.92</ele>
        <time>2018-04-23T12:45:20Z</time>
      </trkpt>
      <trkpt lat="44.83793" lon="3.49573">
        <ele>1271.48</ele>
        <time>2018-04-23T12:45:34Z</time>
      </trkpt>
      <trkpt lat="44.83776" lon="3.49577">
        <ele>1270.04</ele>
        <time>2018-04-23T12:45:52Z</time>
      </trkpt>
      <trkpt lat="44.83754" lon="3.49572">
        <ele>1271</ele>
        <time>2018-04-23T12:46:09Z</time>
      </trkpt>
      <trkpt lat="44.83733" lon="3.49571">
        <ele>1274.85</ele>
        <time>2018-04-23T12:46:27Z</time>
      </trkpt>
      <trkpt lat="44.83713" lon="3.49565">
        <ele>1274.85</ele>
        <time>2018-04-23T12:46:44Z</time>
      </trkpt>
      <trkpt lat="44.83708" lon="3.49567">
        <ele>1274.36</ele>
        <time>2018-04-23T12:47:07Z</time>
      </trkpt>
      <trkpt lat="44.83708" lon="3.49564">
        <ele>1274.36</ele>
        <time>2018-04-23T12:47:34Z</time>
      </trkpt>
      <trkpt lat="44.83711" lon="3.49561">
        <ele>1273.88</ele>
        <time>2018-04-23T12:48:05Z</time>
      </trkpt>
      <trkpt lat="44.83709" lon="3.49561">
        <ele>1276.77</ele>
        <time>2018-04-23T12:48:35Z</time>
      </trkpt>
      <trkpt lat="44.83709" lon="3.49569">
        <ele>1277.25</ele>
        <time>2018-04-23T12:49:10Z</time>
      </trkpt>
      <trkpt lat="44.83712" lon="3.49574">
        <ele>1281.09</ele>
        <time>2018-04-23T12:49:49Z</time>
      </trkpt>
      <trkpt lat="44.8371" lon="3.49576">
        <ele>1285.9</ele>
        <time>2018-04-23T12:50:24Z</time>
      </trkpt>
      <trkpt lat="44.83718" lon="3.49566">
        <ele>1288.3</ele>
        <time>2018-04-23T12:51:04Z</time>
      </trkpt>
      <trkpt lat="44.83713" lon="3.4957">
        <ele>1285.9</ele>
        <time>2018-04-23T12:51:39Z</time>
      </trkpt>
      <trkpt lat="44.83703" lon="3.49565">
        <ele>1283.98</ele>
        <time>2018-04-23T12:52:06Z</time>
      </trkpt>
      <trkpt lat="44.83677" lon="3.49555">
        <ele>1284.46</ele>
        <time>2018-04-23T12:52:23Z</time>
      </trkpt>
      <trkpt lat="44.83665" lon="3.49556">
        <ele>1287.34</ele>
        <time>2018-04-23T12:52:36Z</time>
      </trkpt>
      <trkpt lat="44.83654" lon="3.49556">
        <ele>1294.07</ele>
        <time>2018-04-23T12:52:47Z</time>
      </trkpt>
      <trkpt lat="44.83633" lon="3.49556">
        <ele>1296.48</ele>
        <time>2018-04-23T12:53:03Z</time>
      </trkpt>
      <trkpt lat="44.83615" lon="3.49552">
        <ele>1295.99</ele>
        <time>2018-04-23T12:53:18Z</time>
      </trkpt>
      <trkpt lat="44.83597" lon="3.49547">
        <ele>1292.15</ele>
        <time>2018-04-23T12:53:33Z</time>
      </trkpt>
      <trkpt lat="44.83578" lon="3.49548">
        <ele>1286.38</ele>
        <time>2018-04-23T12:53:49Z</time>
      </trkpt>
      <trkpt lat="44.83564" lon="3.49544">
        <ele>1285.42</ele>
        <time>2018-04-23T12:53:59Z</time>
      </trkpt>
      <trkpt lat="44.83539" lon="3.49545">
        <ele>1281.57</ele>
        <time>2018-04-23T12:54:18Z</time>
      </trkpt>
      <trkpt lat="44.83518" lon="3.49551">
        <ele>1279.65</ele>
        <time>2018-04-23T12:54:33Z</time>
      </trkpt>
      <trkpt lat="44.83512" lon="3.49549">
        <ele>1278.21</ele>
        <time>2018-04-23T12:54:48Z</time>
      </trkpt>
      <trkpt lat="44.8352" lon="3.49567">
        <ele>1280.13</ele>
        <time>2018-04-23T12:55:09Z</time>
      </trkpt>
      <trkpt lat="44.83516" lon="3.49586">
        <ele>1282.54</ele>
        <time>2018-04-23T12:55:28Z</time>
      </trkpt>
      <trkpt lat="44.83517" lon="3.49593">
        <ele>1292.15</ele>
        <time>2018-04-23T12:55:46Z</time>
      </trkpt>
      <trkpt lat="44.83516" lon="3.49588">
        <ele>1295.99</ele>
        <time>2018-04-23T12:56:06Z</time>
      </trkpt>
      <trkpt lat="44.83517" lon="3.49585">
        <ele>1300.32</ele>
        <time>2018-04-23T12:56:32Z</time>
      </trkpt>
      <trkpt lat="44.83524" lon="3.49584">
        <ele>1299.84</ele>
        <time>2018-04-23T12:57:11Z</time>
      </trkpt>
      <trkpt lat="44.83529" lon="3.49578">
        <ele>1308.49</ele>
        <time>2018-04-23T12:57:45Z</time>
      </trkpt>
      <trkpt lat="44.83525" lon="3.49576">
        <ele>1313.3</ele>
        <time>2018-04-23T12:58:12Z</time>
      </trkpt>
      <trkpt lat="44.83523" lon="3.49576">
        <ele>1312.82</ele>
        <time>2018-04-23T12:58:38Z</time>
      </trkpt>
      <trkpt lat="44.83522" lon="3.49598">
        <ele>1304.17</ele>
        <time>2018-04-23T12:59:05Z</time>
      </trkpt>
      <trkpt lat="44.83513" lon="3.49613">
        <ele>1305.13</ele>
        <time>2018-04-23T12:59:22Z</time>
      </trkpt>
      <trkpt lat="44.83512" lon="3.49615">
        <ele>1298.4</ele>
        <time>2018-04-23T12:59:44Z</time>
      </trkpt>
      <trkpt lat="44.8351" lon="3.49626">
        <ele>1297.44</ele>
        <time>2018-04-23T13:00:00Z</time>
      </trkpt>
      <trkpt lat="44.83511" lon="3.49639">
        <ele>1295.51</ele>
        <time>2018-04-23T13:00:16Z</time>
      </trkpt>
      <trkpt lat="44.83511" lon="3.49641">
        <ele>1295.51</ele>
        <time>2018-04-23T13:00:24Z</time>
      </trkpt>
      <trkpt lat="44.83508" lon="3.49664">
        <ele>1298.4</ele>
        <time>2018-04-23T13:00:40Z</time>
      </trkpt>
      <trkpt lat="44.83508" lon="3.4968">
        <ele>1300.8</ele>
        <time>2018-04-23T13:00:54Z</time>
      </trkpt>
      <trkpt lat="44.83503" lon="3.49697">
        <ele>1306.57</ele>
        <time>2018-04-23T13:01:13Z</time>
      </trkpt>
      <trkpt lat="44.83505" lon="3.49713">
        <ele>1309.45</ele>
        <time>2018-04-23T13:01:33Z</time>
      </trkpt>
      <trkpt lat="44.83505" lon="3.49728">
        <ele>1308.01</ele>
        <time>2018-04-23T13:01:50Z</time>
      </trkpt>
      <trkpt lat="44.83493" lon="3.49755">
        <ele>1313.3</ele>
        <time>2018-04-23T13:02:09Z</time>
      </trkpt>
      <trkpt lat="44.83478" lon="3.49756">
        <ele>1311.86</ele>
        <time>2018-04-23T13:02:27Z</time>
      </trkpt>
      <trkpt lat="44.8345" lon="3.49748">
        <ele>1310.9</ele>
        <time>2018-04-23T13:02:43Z</time>
      </trkpt>
      <trkpt lat="44.83425" lon="3.49741">
        <ele>1311.38</ele>
        <time>2018-04-23T13:02:59Z</time>
      </trkpt>
      <trkpt lat="44.83402" lon="3.49733">
        <ele>1310.41</ele>
        <time>2018-04-23T13:03:14Z</time>
      </trkpt>
      <trkpt lat="44.8337" lon="3.49725">
        <ele>1305.61</ele>
        <time>2018-04-23T13:03:35Z</time>
      </trkpt>
      <trkpt lat="44.83345" lon="3.49713">
        <ele>1307.05</ele>
        <time>2018-04-23T13:03:56Z</time>
      </trkpt>
      <trkpt lat="44.83319" lon="3.49705">
        <ele>1305.13</ele>
        <time>2018-04-23T13:04:13Z</time>
      </trkpt>
      <trkpt lat="44.8331" lon="3.49702">
        <ele>1307.53</ele>
        <time>2018-04-23T13:04:19Z</time>
      </trkpt>
      <trkpt lat="44.83282" lon="3.49696">
        <ele>1302.24</ele>
        <time>2018-04-23T13:04:39Z</time>
      </trkpt>
      <trkpt lat="44.8325" lon="3.49684">
        <ele>1304.17</ele>
        <time>2018-04-23T13:05:00Z</time>
      </trkpt>
      <trkpt lat="44.8322" lon="3.49676">
        <ele>1300.32</ele>
        <time>2018-04-23T13:05:21Z</time>
      </trkpt>
      <trkpt lat="44.83189" lon="3.49669">
        <ele>1299.36</ele>
        <time>2018-04-23T13:05:43Z</time>
      </trkpt>
      <trkpt lat="44.83162" lon="3.49664">
        <ele>1301.28</ele>
        <time>2018-04-23T13:06:00Z</time>
      </trkpt>
      <trkpt lat="44.82446" lon="3.4877">
        <ele>1294.07</ele>
        <time>2018-04-23T13:20:22Z</time>
      </trkpt>
      <trkpt lat="44.82446" lon="3.4877">
        <ele>1295.51</ele>
        <time>2018-04-23T13:20:55Z</time>
      </trkpt>
      <trkpt lat="44.82447" lon="3.48769">
        <ele>1294.55</ele>
        <time>2018-04-23T13:21:31Z</time>
      </trkpt>
    </trkseg>
  </trk>
</gpx>